Data for 05/10/2010

Time Sea-Level Adjusted Pressure Absolute Pressure Temperature Relative Humidity Dew Point Precipitation   
(mb) (inHg) (mb) (inHg) (C) (F) (%) (C) (F) (mm) (in)
00:01 1015 29.97 844 24.92 4.7 40.5 62 -1.9 28.6 5.101 0.201
00:02 1015 29.97 844 24.92 4.7 40.5 62 -1.9 28.6 5.089 0.2
00:03 1015 29.97 844 24.92 4.8 40.6 62 -1.8 28.8 5.129 0.202
00:04 1015 29.97 844 24.92 4.8 40.6 62 -1.9 28.6 5.163 0.203
00:05 1015 29.97 844 24.92 4.8 40.7 62 -1.8 28.8 5.242 0.206
00:06 1015 29.97 844 24.92 4.8 40.7 62 -1.9 28.6 5.231 0.206
00:07 1015 29.97 844 24.92 4.9 40.8 62 -1.7 28.9 5.287 0.208
00:08 1015 29.97 844 24.92 4.8 40.7 62 -1.8 28.8 5.186 0.204
00:09 1015 29.97 844 24.92 4.9 40.8 62 -1.9 28.7 5.27 0.207
00:10 1015 29.97 844 24.92 4.9 40.7 62 -1.9 28.6 5.253 0.207
00:11 1015 29.97 844 24.92 4.9 40.8 62 -1.8 28.7 5.327 0.21
00:12 1015 29.97 844 24.92 4.9 40.8 62 -1.7 28.9 5.316 0.209
00:13 1015 29.97 844 24.92 4.9 40.8 62 -1.8 28.8 5.31 0.209
00:14 1015 29.97 844 24.92 4.9 40.9 62 -1.7 29 5.287 0.208
00:15 1015 29.97 844 24.92 4.9 40.8 63 -1.7 29 5.265 0.207
00:16 1015 29.97 844 24.92 4.9 40.8 62 -1.7 29 5.293 0.208
00:17 1015 29.97 844 24.92 4.9 40.9 62 -1.7 28.9 5.305 0.209
00:18 1015 29.97 844 24.92 4.9 40.9 62 -1.7 28.9 5.34 0.21
00:19 1015 29.97 844 24.92 4.9 40.8 63 -1.6 29.2 5.306 0.209
00:20 1015 29.97 844 24.92 4.8 40.7 63 -1.7 29 5.238 0.206
00:21 1015 29.97 844 24.92 4.8 40.7 63 -1.7 29 5.26 0.207
00:22 1015 29.97 844 24.92 4.9 40.8 62 -1.7 29 5.249 0.207
00:23 1015 29.97 844 24.92 4.9 40.8 62 -1.7 28.9 5.328 0.21
00:24 1015 29.97 844 24.92 4.9 40.8 62 -1.7 29 5.305 0.209
00:25 1015 29.97 844 24.92 4.9 40.8 63 -1.6 29.1 5.288 0.208
00:26 1015 29.97 844 24.92 4.8 40.7 63 -1.7 29 5.227 0.206
00:27 1015 29.97 844 24.92 4.8 40.7 63 -1.6 29.1 5.227 0.206
00:28 1015 29.97 844 24.92 4.8 40.7 63 -1.7 29 5.233 0.206
00:29 1015 29.97 844 24.92 4.8 40.7 63 -1.6 29.1 5.199 0.205
00:30 1015 29.97 844 24.92 4.7 40.5 64 -1.5 29.3 5.114 0.201
00:31 1015 29.97 844 24.92 4.6 40.2 65 -1.5 29.3 4.978 0.196
00:32 1014 29.94 844 24.92 4.5 40.1 66 -1.4 29.5 4.866 0.192
00:33 1014 29.94 844 24.92 4.5 40 65 -1.4 29.4 4.86 0.191
00:34 1014 29.94 844 24.92 4.5 40.1 65 -1.5 29.4 4.906 0.193
00:35 1014 29.94 844 24.92 4.5 40.2 65 -1.4 29.4 4.95 0.195
00:36 1015 29.97 844 24.92 4.6 40.3 65 -1.4 29.5 4.984 0.196
00:37 1014 29.94 844 24.92 4.6 40.3 65 -1.5 29.3 5.007 0.197
00:38 1014 29.94 844 24.92 4.7 40.4 64 -1.4 29.4 5.059 0.199
00:39 1014 29.94 844 24.92 4.7 40.4 65 -1.4 29.4 5.042 0.199
00:40 1014 29.94 844 24.92 4.6 40.3 65 -1.4 29.5 4.985 0.196
00:41 1014 29.94 844 24.92 4.6 40.2 65 -1.4 29.5 4.947 0.195
00:42 1014 29.94 844 24.92 4.5 40.1 65 -1.5 29.3 4.913 0.193
00:43 1014 29.94 844 24.92 4.5 40.1 65 -1.4 29.4 4.902 0.193
00:44 1014 29.94 844 24.92 4.5 40.1 65 -1.5 29.4 4.896 0.193
00:45 1014 29.94 844 24.92 4.5 40.1 66 -1.4 29.5 4.857 0.191
00:46 1014 29.94 844 24.92 4.4 39.9 66 -1.4 29.4 4.789 0.189
00:47 1014 29.94 844 24.92 4.4 39.8 66 -1.4 29.4 4.716 0.186
00:48 1014 29.94 844 24.92 4.3 39.7 66 -1.5 29.3 4.665 0.184
00:49 1015 29.97 844 24.92 4.2 39.6 66 -1.5 29.3 4.592 0.181
00:50 1015 29.97 844 24.92 4.2 39.5 67 -1.5 29.3 4.529 0.178
00:51 1015 29.97 844 24.92 4.1 39.3 67 -1.5 29.3 4.484 0.177
00:52 1014 29.94 844 24.92 4 39.2 68 -1.4 29.4 4.383 0.173
00:53 1014 29.94 844 24.92 3.9 39.1 68 -1.4 29.4 4.332 0.171
00:54 1014 29.94 844 24.92 3.9 39 68 -1.5 29.4 4.27 0.168
00:55 1014 29.94 844 24.92 3.8 38.9 68 -1.5 29.3 4.219 0.166
00:56 1014 29.94 844 24.92 3.8 38.9 68 -1.5 29.3 4.202 0.165
00:57 1014 29.94 844 24.92 3.8 38.9 68 -1.5 29.3 4.213 0.166
00:58 1014 29.94 844 24.92 3.8 38.9 68 -1.5 29.4 4.157 0.164
00:59 1014 29.94 844 24.92 3.7 38.7 69 -1.5 29.3 4.129 0.163
01:00 1014 29.94 844 24.92 3.7 38.6 69 -1.5 29.3 4.072 0.16
01:01 1014 29.94 844 24.92 3.7 38.6 69 -1.5 29.2 4.061 0.16
01:02 1014 29.94 844 24.92 3.7 38.6 69 -1.5 29.2 4.038 0.159
01:03 1014 29.94 844 24.92 3.7 38.6 68 -1.6 29.1 4.061 0.16
01:04 1014 29.94 844 24.92 3.7 38.7 68 -1.7 29 4.129 0.163
01:05 1014 29.94 844 24.92 3.7 38.7 68 -1.6 29.2 4.101 0.161
01:06 1014 29.94 844 24.92 3.7 38.7 68 -1.6 29.1 4.123 0.162
01:07 1014 29.94 844 24.92 3.7 38.7 68 -1.6 29.1 4.079 0.161
01:08 1014 29.94 844 24.92 3.7 38.6 68 -1.6 29.1 4.012 0.158
01:09 1014 29.94 844 24.92 3.6 38.4 69 -1.6 29.1 3.91 0.154
01:10 1014 29.94 844 24.92 3.4 38.2 69 -1.6 29 3.792 0.149
01:11 1014 29.94 844 24.92 3.4 38 70 -1.6 29.1 3.713 0.146
01:12 1014 29.94 844 24.92 3.3 37.9 70 -1.6 29.1 3.651 0.144
01:13 1014 29.94 844 24.92 3.3 37.9 70 -1.7 29 3.652 0.144
01:14 1014 29.94 844 24.92 3.3 37.9 70 -1.7 29 3.663 0.144
01:15 1014 29.94 844 24.92 3.4 38.1 69 -1.8 28.8 3.725 0.147
01:16 1014 29.94 844 24.92 3.4 38.1 69 -1.7 29 3.738 0.147
01:17 1014 29.94 844 24.92 3.4 38.1 69 -1.8 28.8 3.698 0.146
01:18 1014 29.94 844 24.92 3.3 38 70 -1.7 29 3.647 0.144
01:19 1014 29.94 844 24.92 3.3 38 70 -1.7 29 3.67 0.144
01:20 1014 29.94 844 24.92 3.4 38.1 69 -1.8 28.8 3.761 0.148
01:21 1015 29.97 844 24.92 3.4 38.1 68 -1.8 28.7 3.71 0.146
01:22 1015 29.97 844 24.92 3.3 37.9 70 -1.7 28.9 3.631 0.143
01:23 1015 29.97 844 24.92 3.1 37.6 70 -1.8 28.8 3.529 0.139
01:24 1015 29.97 844 24.92 3.2 37.7 70 -1.8 28.8 3.484 0.137
01:25 1015 29.97 844 24.92 3.1 37.5 70 -1.8 28.8 3.417 0.135
01:26 1015 29.97 844 24.92 2.9 37.2 71 -1.8 28.8 3.275 0.129
01:27 1015 29.97 844 24.92 2.8 37.1 71 -1.9 28.6 3.258 0.128
01:28 1015 29.97 844 24.92 2.8 37 72 -1.8 28.7 3.151 0.124
01:29 1015 29.97 844 24.92 2.7 36.8 73 -1.8 28.8 3.06 0.12
01:30 1015 29.97 844 24.92 2.6 36.8 73 -1.8 28.8 2.953 0.116
01:31 1015 29.97 844 24.92 2.6 36.8 72 -1.9 28.7 3.01 0.119
01:32 1015 29.97 844 24.92 2.7 36.8 72 -1.9 28.7 3.027 0.119
01:33 1015 29.97 844 24.92 2.6 36.7 72 -1.9 28.6 2.919 0.115
01:34 1015 29.97 844 24.92 2.5 36.6 73 -1.8 28.8 2.868 0.113
01:35 1015 29.97 844 24.92 2.5 36.5 73 -1.8 28.8 2.908 0.114
01:36 1015 29.97 844 24.92 2.6 36.7 73 -1.8 28.8 2.953 0.116
01:37 1015 29.97 844 24.92 2.6 36.7 73 -1.8 28.7 3.021 0.119
01:38 1015 29.97 844 24.92 2.7 36.8 72 -2 28.5 3.038 0.12
01:39 1015 29.97 844 24.92 2.5 36.5 73 -1.9 28.6 2.903 0.114
01:40 1015 29.97 844 24.92 2.4 36.3 74 -1.8 28.7 2.801 0.11
01:41 1015 29.97 844 24.92 2.3 36.2 74 -1.9 28.5 2.722 0.107
01:42 1015 29.97 844 24.92 2.3 36.2 73 -2 28.4 2.716 0.107
01:43 1015 29.97 844 24.92 2.2 36 74 -2 28.4 2.625 0.103
01:44 1015 29.97 844 24.92 2.1 35.8 74 -2 28.4 2.524 0.099
01:45 1015 29.97 844 24.92 2 35.7 75 -1.9 28.7 2.444 0.096
01:46 1015 29.97 844 24.92 2 35.7 75 -1.9 28.6 2.478 0.098
01:47 1015 29.97 844 24.92 2.1 35.7 75 -1.8 28.7 2.507 0.099
01:48 1015 29.97 844 24.92 2.1 35.8 76 -1.7 28.9 2.535 0.1
01:49 1015 29.97 844 24.92 2.2 35.9 75 -1.7 28.9 2.58 0.102
01:50 1015 29.97 844 24.92 2.2 36 75 -1.8 28.8 2.631 0.104
01:51 1015 29.97 844 24.92 2.2 36 75 -1.7 28.9 2.66 0.105
01:52 1015 29.97 844 24.92 2.2 36 75 -1.7 28.9 2.682 0.106
01:53 1015 29.97 844 24.92 2.3 36.1 75 -1.7 28.9 2.722 0.107
01:54 1015 29.97 844 24.92 2.3 36.2 74 -1.8 28.8 2.779 0.109
01:55 1015 29.97 844 24.92 2.3 36.2 74 -1.8 28.8 2.756 0.109
01:56 1015 29.97 844 24.92 2.3 36.2 75 -1.7 29 2.779 0.109
01:57 1015 29.97 844 24.92 2.5 36.4 74 -1.7 29 2.931 0.115
01:58 1015 29.97 844 24.92 2.6 36.6 74 -1.6 29.1 2.988 0.118
01:59 1015 29.97 844 24.92 2.7 36.8 73 -1.6 29.1 3.101 0.122
02:00 1015 29.97 844 24.92 2.9 37.2 72 -1.6 29.1 3.367 0.133
02:01 1015 29.97 844 24.92 3 37.4 71 -1.6 29 3.458 0.136
02:02 1015 29.97 844 24.92 3.1 37.5 72 -1.5 29.2 3.458 0.136
02:03 1015 29.97 844 24.92 3.1 37.6 72 -1.5 29.2 3.486 0.137
02:04 1015 29.97 844 24.92 3.1 37.6 72 -1.5 29.3 3.424 0.135
02:05 1015 29.97 844 24.92 3 37.5 72 -1.6 29.1 3.379 0.133
02:06 1015 29.97 844 24.92 3 37.3 72 -1.5 29.3 3.288 0.129
02:07 1015 29.97 844 24.92 2.9 37.2 72 -1.6 29.1 3.271 0.129
02:08 1015 29.97 844 24.92 2.9 37.1 73 -1.5 29.2 3.169 0.125
02:09 1015 29.97 844 24.92 2.7 36.9 73 -1.6 29.1 3.107 0.122
02:10 1015 29.97 844 24.92 2.7 36.8 73 -1.6 29.1 3.033 0.119
02:11 1015 29.97 844 24.92 2.6 36.7 74 -1.6 29 2.965 0.117
02:12 1015 29.97 844 24.92 2.6 36.6 74 -1.6 29.1 2.92 0.115
02:13 1015 29.97 844 24.92 2.6 36.6 74 -1.6 29.1 2.937 0.116
02:14 1015 29.97 844 24.92 2.6 36.7 74 -1.6 29.1 3.096 0.122
02:15 1015 29.97 844 24.92 2.8 37 72 -1.7 29 3.244 0.128
02:16 1015 29.97 844 24.92 3 37.5 71 -1.7 29 3.471 0.137
02:17 1015 29.97 844 24.92 3.2 37.7 71 -1.6 29.1 3.624 0.143
02:18 1015 29.97 844 24.92 3.3 38 70 -1.6 29.2 3.704 0.146
02:19 1015 29.97 844 24.92 3.4 38.2 69 -1.6 29.1 3.868 0.152
02:20 1015 29.97 844 24.92 3.6 38.4 69 -1.6 29.2 3.965 0.156
02:21 1015 29.97 844 24.92 3.6 38.5 68 -1.6 29.1 4.073 0.16
02:22 1015 29.97 844 24.92 3.8 38.8 68 -1.6 29.2 4.186 0.165
02:23 1015 29.97 844 24.92 3.8 38.9 68 -1.5 29.3 4.203 0.165
02:24 1014 29.94 844 24.92 3.8 38.9 68 -1.6 29 4.226 0.166
02:25 1015 29.97 844 24.92 3.9 39 67 -1.7 28.9 4.305 0.169
02:26 1015 29.97 844 24.92 4 39.1 66 -1.8 28.8 4.391 0.173
02:27 1015 29.97 844 24.92 4 39.2 66 -1.7 28.9 4.431 0.174
02:28 1014 29.94 844 24.92 4 39.3 66 -1.7 29 4.391 0.173
02:29 1014 29.94 844 24.92 4 39.2 66 -1.7 28.9 4.346 0.171
02:30 1015 29.97 844 24.92 4 39.1 66 -1.8 28.8 4.363 0.172
02:31 1015 29.97 844 24.92 3.9 39.1 66 -1.8 28.8 4.335 0.171
02:32 1015 29.97 844 24.92 3.9 39.1 67 -1.7 28.9 4.301 0.169
02:33 1015 29.97 844 24.92 3.9 39 66 -1.9 28.7 4.318 0.17
02:34 1014 29.94 844 24.92 3.9 39 65 -2 28.4 4.335 0.171
02:35 1014 29.94 844 24.92 4 39.1 65 -1.9 28.5 4.313 0.17
02:36 1014 29.94 844 24.92 3.9 39 66 -1.9 28.6 4.188 0.165
02:37 1014 29.94 844 24.92 3.8 38.9 66 -1.9 28.6 4.194 0.165
02:38 1014 29.94 844 24.92 3.8 38.8 66 -1.9 28.5 4.092 0.161
02:39 1014 29.94 844 24.92 3.7 38.6 66 -2.1 28.2 4.042 0.159
02:40 1014 29.94 844 24.92 3.7 38.6 66 -2.2 28.1 4.081 0.161
02:41 1014 29.94 844 24.92 3.7 38.7 66 -2.1 28.3 4.098 0.161
02:42 1014 29.94 844 24.92 3.7 38.6 66 -2.1 28.2 4.076 0.16
02:43 1014 29.94 844 24.92 3.7 38.6 66 -2 28.4 4.064 0.16
02:44 1014 29.94 844 24.92 3.6 38.6 67 -1.9 28.5 4.065 0.16
02:45 1014 29.94 844 24.92 3.6 38.5 67 -1.9 28.5 4.036 0.159
02:46 1014 29.94 844 24.92 3.6 38.5 68 -1.8 28.8 4.008 0.158
02:47 1014 29.94 844 24.92 3.7 38.6 67 -1.9 28.7 4.104 0.162
02:48 1014 29.94 844 24.92 3.8 38.8 66 -1.9 28.5 4.229 0.166
02:49 1014 29.94 844 24.92 3.9 38.9 66 -1.9 28.6 4.331 0.171
02:50 1014 29.94 844 24.92 3.9 39 67 -1.8 28.8 4.252 0.167
02:51 1014 29.94 844 24.92 3.8 38.8 66 -1.9 28.6 4.167 0.164
02:52 1014 29.94 844 24.92 3.7 38.7 67 -1.8 28.8 4.104 0.162
02:53 1014 29.94 844 24.92 3.6 38.5 68 -1.8 28.7 3.957 0.156
02:54 1014 29.94 844 24.92 3.5 38.3 68 -1.8 28.7 3.929 0.155
02:55 1014 29.94 843 24.89 3.5 38.4 68 -1.9 28.6 3.952 0.156
02:56 1014 29.94 843 24.89 3.5 38.3 68 -1.8 28.8 3.867 0.152
02:57 1014 29.94 843 24.89 3.4 38.2 68 -1.9 28.7 3.793 0.149
02:58 1014 29.94 844 24.92 3.4 38.1 68 -1.9 28.6 3.781 0.149
02:59 1014 29.94 843 24.89 3.3 38 69 -1.9 28.6 3.764 0.148
03:00 1014 29.94 844 24.92 3.4 38 69 -1.9 28.6 3.718 0.146
03:01 1014 29.94 843 24.89 3.3 38 68 -2 28.4 3.746 0.147
03:02 1014 29.94 843 24.89 3.4 38.1 68 -2 28.5 3.802 0.15
03:03 1014 29.94 843 24.89 3.4 38.1 68 -1.9 28.6 3.825 0.151
03:04 1014 29.94 843 24.89 3.4 38.1 68 -1.9 28.6 3.768 0.148
03:05 1014 29.94 843 24.89 3.4 38.1 68 -2 28.5 3.837 0.151
03:06 1014 29.94 843 24.89 3.4 38.2 67 -2.1 28.3 3.837 0.151
03:07 1014 29.94 843 24.89 3.5 38.3 67 -2 28.4 3.922 0.154
03:08 1014 29.94 843 24.89 3.5 38.4 67 -2 28.5 3.916 0.154
03:09 1014 29.94 843 24.89 3.5 38.4 67 -1.9 28.5 3.922 0.154
03:10 1014 29.94 843 24.89 3.5 38.3 68 -1.9 28.6 3.86 0.152
03:11 1014 29.94 843 24.89 3.4 38.2 67 -2 28.3 3.815 0.15
03:12 1014 29.94 843 24.89 3.4 38.2 67 -2.1 28.3 3.809 0.15
03:13 1014 29.94 843 24.89 3.4 38.1 67 -2.1 28.2 3.764 0.148
03:14 1014 29.94 843 24.89 3.4 38.1 68 -2 28.3 3.758 0.148
03:15 1014 29.94 843 24.89 3.4 38 67 -2.2 28.1 3.747 0.148
03:16 1014 29.94 843 24.89 3.4 38.2 67 -2.1 28.2 3.793 0.149
03:17 1014 29.94 843 24.89 3.4 38.1 68 -2 28.3 3.736 0.147
03:18 1014 29.94 843 24.89 3.3 37.9 68 -2 28.4 3.594 0.141
03:19 1014 29.94 843 24.89 3.1 37.7 68 -2.2 28.1 3.51 0.138
03:20 1014 29.94 843 24.89 3.1 37.6 68 -2.2 28 3.544 0.14
03:21 1014 29.94 843 24.89 3.2 37.8 68 -2.2 28.1 3.6 0.142
03:22 1014 29.94 843 24.89 3.2 37.8 68 -2.1 28.2 3.651 0.144
03:23 1014 29.94 843 24.89 3.2 37.7 68 -2.1 28.3 3.566 0.14
03:24 1014 29.94 843 24.89 3.1 37.6 68 -2.2 28.1 3.521 0.139
03:25 1014 29.94 843 24.89 3.2 37.7 68 -2.2 28 3.589 0.141
03:26 1014 29.94 843 24.89 3.3 37.9 67 -2.2 28 3.657 0.144
03:27 1014 29.94 843 24.89 3.3 37.9 67 -2.2 28 3.719 0.146
03:28 1014 29.94 843 24.89 3.3 38 67 -2.3 27.9 3.714 0.146
03:29 1014 29.94 843 24.89 3.4 38 66 -2.3 27.8 3.759 0.148
03:30 1014 29.94 843 24.89 3.4 38.1 66 -2.4 27.7 3.804 0.15
03:31 1014 29.94 843 24.89 3.4 38.2 66 -2.3 27.9 3.855 0.152
03:32 1014 29.94 843 24.89 3.4 38.2 66 -2.2 28 3.793 0.149
03:33 1014 29.94 843 24.89 3.4 38.1 66 -2.3 27.8 3.827 0.151
03:34 1014 29.94 843 24.89 3.4 38.2 65 -2.4 27.7 3.878 0.153
03:35 1014 29.94 843 24.89 3.4 38.2 66 -2.3 27.9 3.833 0.151
03:36 1014 29.94 843 24.89 3.4 38.1 66 -2.3 27.9 3.765 0.148
03:37 1014 29.94 843 24.89 3.3 37.9 66 -2.4 27.7 3.68 0.145
03:38 1014 29.94 843 24.89 3.3 38 66 -2.4 27.7 3.765 0.148
03:39 1014 29.94 843 24.89 3.3 38 65 -2.5 27.5 3.776 0.149
03:40 1014 29.94 843 24.89 3.4 38.1 66 -2.4 27.7 3.833 0.151
03:41 1014 29.94 843 24.89 3.4 38 66 -2.3 27.9 3.748 0.148
03:42 1014 29.94 843 24.89 3.3 37.9 67 -2.3 27.8 3.595 0.142
03:43 1014 29.94 843 24.89 3.2 37.7 67 -2.5 27.6 3.59 0.141
03:44 1014 29.94 843 24.89 3.2 37.7 66 -2.5 27.6 3.624 0.143
03:45 1014 29.94 843 24.89 3.2 37.8 67 -2.4 27.6 3.646 0.144
03:46 1014 29.94 843 24.89 3.2 37.8 66 -2.5 27.6 3.663 0.144
03:47 1014 29.94 843 24.89 3.2 37.8 66 -2.4 27.6 3.618 0.142
03:48 1014 29.94 843 24.89 3.2 37.8 66 -2.5 27.6 3.629 0.143
03:49 1014 29.94 843 24.89 3.2 37.8 66 -2.4 27.6 3.607 0.142
03:50 1014 29.94 843 24.89 3.2 37.7 67 -2.4 27.6 3.573 0.141
03:51 1014 29.94 843 24.89 3.1 37.6 67 -2.4 27.8 3.522 0.139
03:52 1014 29.94 843 24.89 3.1 37.5 67 -2.5 27.6 3.442 0.136
03:53 1014 29.94 843 24.89 3.1 37.5 67 -2.4 27.6 3.465 0.136
03:54 1014 29.94 843 24.89 3.1 37.5 67 -2.4 27.7 3.459 0.136
03:55 1014 29.94 843 24.89 3 37.4 68 -2.4 27.8 3.369 0.133
03:56 1014 29.94 843 24.89 3 37.3 68 -2.3 27.8 3.312 0.13
03:57 1014 29.94 843 24.89 2.9 37.1 69 -2.3 27.8 3.233 0.127
03:58 1014 29.94 843 24.89 2.8 37 69 -2.4 27.7 3.16 0.124
03:59 1014 29.94 843 24.89 2.7 36.9 69 -2.4 27.7 3.126 0.123
04:00 1014 29.94 843 24.89 2.7 36.9 69 -2.4 27.8 3.109 0.122
04:01 1014 29.94 843 24.89 2.7 36.8 70 -2.3 27.8 3.018 0.119
04:02 1014 29.94 843 24.89 2.6 36.7 70 -2.3 27.8 3.007 0.118
04:03 1014 29.94 843 24.89 2.5 36.5 70 -2.3 27.8 2.899 0.114
04:04 1014 29.94 843 24.89 2.5 36.5 71 -2.3 27.8 2.888 0.114
04:05 1014 29.94 843 24.89 2.5 36.4 70 -2.4 27.7 2.882 0.113
04:06 1014 29.94 843 24.89 2.5 36.4 70 -2.4 27.7 2.882 0.113
04:07 1014 29.94 843 24.89 2.5 36.4 71 -2.3 27.8 2.877 0.113
04:08 1014 29.94 843 24.89 2.4 36.3 71 -2.4 27.7 2.803 0.11
04:09 1014 29.94 843 24.89 2.4 36.3 71 -2.3 27.8 2.78 0.109
04:10 1014 29.94 843 24.89 2.3 36.1 72 -2.3 27.9 2.69 0.106
04:11 1014 29.94 843 24.89 2.3 36.1 72 -2.3 27.9 2.633 0.104
04:12 1014 29.94 843 24.89 2.2 35.9 72 -2.3 27.8 2.56 0.101
04:13 1014 29.94 843 24.89 2.2 35.9 72 -2.4 27.7 2.588 0.102
04:14 1014 29.94 843 24.89 2.2 36 71 -2.4 27.6 2.65 0.104
04:15 1014 29.94 843 24.89 2.2 36 72 -2.3 27.8 2.65 0.104
04:16 1014 29.94 843 24.89 2.2 36 72 -2.4 27.7 2.594 0.102
04:17 1014 29.94 843 24.89 2.2 35.9 72 -2.3 27.8 2.582 0.102
04:18 1014 29.94 843 24.89 2.2 35.9 73 -2.3 27.9 2.526 0.099
04:19 1014 29.94 843 24.89 2.1 35.7 73 -2.3 27.8 2.446 0.096
04:20 1014 29.94 844 24.92 2.1 35.7 73 -2.4 27.8 2.452 0.097
04:21 1014 29.94 843 24.89 2 35.6 73 -2.4 27.7 2.378 0.094
04:22 1014 29.94 843 24.89 2 35.5 73 -2.4 27.7 2.367 0.093
04:23 1014 29.94 843 24.89 2 35.5 73 -2.4 27.7 2.356 0.093
04:24 1014 29.94 843 24.89 1.9 35.5 73 -2.4 27.6 2.356 0.093
04:25 1014 29.94 843 24.89 2 35.5 72 -2.5 27.5 2.367 0.093
04:26 1014 29.94 843 24.89 2.1 35.7 72 -2.5 27.5 2.486 0.098
04:27 1014 29.94 843 24.89 2.1 35.8 71 -2.5 27.5 2.582 0.102
04:28 1014 29.94 843 24.89 2.2 35.9 71 -2.5 27.5 2.622 0.103
04:29 1014 29.94 843 24.89 2.2 36 71 -2.4 27.7 2.611 0.103
04:30 1014 29.94 843 24.89 2.2 35.9 72 -2.4 27.7 2.504 0.099
04:31 1014 29.94 843 24.89 2 35.7 73 -2.4 27.7 2.414 0.095
04:32 1014 29.94 843 24.89 2 35.5 73 -2.4 27.8 2.329 0.092
04:33 1014 29.94 843 24.89 1.9 35.5 73 -2.4 27.7 2.306 0.091
04:34 1014 29.94 843 24.89 1.9 35.4 73 -2.4 27.6 2.346 0.092
04:35 1014 29.94 843 24.89 2 35.5 73 -2.4 27.6 2.358 0.093
04:36 1014 29.94 843 24.89 2 35.6 72 -2.5 27.6 2.415 0.095
04:37 1014 29.94 843 24.89 2 35.7 72 -2.4 27.6 2.426 0.096
04:38 1014 29.94 843 24.89 2 35.7 72 -2.5 27.6 2.472 0.097
04:39 1014 29.94 843 24.89 2.1 35.7 72 -2.4 27.7 2.455 0.097
04:40 1014 29.94 843 24.89 2 35.6 72 -2.5 27.6 2.399 0.094
04:41 1014 29.94 843 24.89 1.8 35.2 74 -2.4 27.7 2.229 0.088
04:42 1014 29.94 843 24.89 1.6 34.9 75 -2.4 27.7 2.077 0.082
04:43 1014 29.94 843 24.89 1.6 34.8 75 -2.4 27.7 2.015 0.079
04:44 1014 29.94 843 24.89 1.7 35 75 -2.3 27.9 2.134 0.084
04:45 1014 29.94 843 24.89 1.8 35.2 75 -2.2 28.1 2.202 0.087
04:46 1014 29.94 843 24.89 1.9 35.5 75 -2.1 28.3 2.355 0.093
04:47 1014 29.94 843 24.89 2.1 35.7 75 -2 28.5 2.429 0.096
04:48 1014 29.94 843 24.89 2.2 35.9 74 -2 28.4 2.57 0.101
04:49 1014 29.94 843 24.89 2.4 36.2 74 -1.9 28.6 2.718 0.107
04:50 1014 29.94 843 24.89 2.4 36.4 73 -1.9 28.6 2.803 0.11
04:51 1014 29.94 843 24.89 2.5 36.5 73 -1.8 28.7 2.871 0.113
04:52 1014 29.94 843 24.89 2.5 36.6 73 -1.7 28.9 2.877 0.113
04:53 1014 29.94 843 24.89 2.5 36.5 73 -1.8 28.8 2.888 0.114
04:54 1014 29.94 843 24.89 2.5 36.5 73 -1.8 28.8 2.894 0.114
04:55 1014 29.94 843 24.89 2.5 36.5 73 -1.8 28.8 2.911 0.115
04:56 1014 29.94 843 24.89 2.6 36.6 73 -1.8 28.8 2.945 0.116
04:57 1014 29.94 843 24.89 2.6 36.7 73 -1.8 28.8 2.985 0.118
04:58 1014 29.94 843 24.89 2.7 36.8 72 -1.8 28.7 3.03 0.119
04:59 1014 29.94 843 24.89 2.7 36.9 73 -1.7 28.9 3.075 0.121
05:00 1014 29.94 843 24.89 2.7 36.8 73 -1.8 28.8 3.03 0.119
05:01 1014 29.94 843 24.89 2.6 36.7 73 -1.7 28.9 3.008 0.118
05:02 1014 29.94 843 24.89 2.6 36.6 73 -1.7 28.9 2.945 0.116
05:03 1014 29.94 843 24.89 2.5 36.6 73 -1.9 28.7 2.94 0.116
05:04 1014 29.94 843 24.89 2.7 36.8 73 -1.8 28.8 3.07 0.121
05:05 1014 29.94 843 24.89 2.7 36.9 73 -1.7 29 3.064 0.121
05:06 1014 29.94 843 24.89 2.6 36.7 73 -1.7 29 2.997 0.118
05:07 1014 29.94 843 24.89 2.5 36.5 74 -1.7 29 2.878 0.113
05:08 1014 29.94 843 24.89 2.4 36.4 74 -1.7 29 2.787 0.11
05:09 1014 29.94 843 24.89 2.4 36.3 75 -1.6 29 2.815 0.111
05:10 1014 29.94 843 24.89 2.3 36.2 75 -1.7 29 2.753 0.108
05:11 1014 29.94 843 24.89 2.4 36.3 75 -1.7 28.9 2.759 0.109
05:12 1014 29.94 843 24.89 2.4 36.4 74 -1.7 29 2.861 0.113
05:13 1014 29.94 843 24.89 2.5 36.5 74 -1.7 29 2.889 0.114
05:14 1014 29.94 843 24.89 2.5 36.5 74 -1.6 29.1 2.974 0.117
05:15 1014 29.94 843 24.89 2.6 36.6 74 -1.6 29.1 2.934 0.116
05:16 1014 29.94 843 24.89 2.6 36.6 74 -1.6 29 2.991 0.118
05:17 1014 29.94 843 24.89 2.7 36.8 74 -1.6 29.2 3.059 0.12
05:18 1014 29.94 843 24.89 2.7 36.8 74 -1.6 29.2 3.076 0.121
05:19 1014 29.94 843 24.89 2.7 36.9 74 -1.5 29.3 3.07 0.121
05:20 1014 29.94 843 24.89 2.7 36.8 74 -1.6 29.2 3.048 0.12
05:21 1014 29.94 843 24.89 2.7 36.9 73 -1.6 29.1 3.093 0.122
05:22 1014 29.94 843 24.89 2.8 37 73 -1.6 29.2 3.178 0.125
05:23 1014 29.94 843 24.89 2.8 37.1 73 -1.5 29.2 3.246 0.128
05:24 1014 29.94 843 24.89 2.9 37.2 73 -1.5 29.4 3.269 0.129
05:25 1014 29.94 843 24.89 2.9 37.2 73 -1.4 29.4 3.257 0.128
05:26 1014 29.94 843 24.89 2.9 37.3 74 -1.3 29.6 3.331 0.131
05:27 1014 29.94 843 24.89 2.9 37.2 73 -1.5 29.3 3.291 0.13
05:28 1014 29.94 843 24.89 3 37.4 73 -1.4 29.4 3.359 0.132
05:29 1014 29.94 843 24.89 3 37.4 73 -1.4 29.6 3.365 0.132
05:30 1014 29.94 843 24.89 2.9 37.3 73 -1.4 29.5 3.303 0.13
05:31 1014 29.94 843 24.89 2.9 37.1 73 -1.5 29.4 3.269 0.129
05:32 1014 29.94 843 24.89 2.8 37.1 73 -1.5 29.2 3.252 0.128
05:33 1014 29.94 843 24.89 2.8 37.1 73 -1.5 29.3 3.229 0.127
05:34 1014 29.94 843 24.89 2.8 37.1 74 -1.4 29.4 3.206 0.126
05:35 1014 29.94 843 24.89 2.8 37.1 74 -1.4 29.4 3.212 0.126
05:36 1014 29.94 843 24.89 2.8 37 74 -1.4 29.4 3.178 0.125
05:37 1014 29.94 843 24.89 2.8 37 74 -1.4 29.4 3.133 0.123
05:38 1014 29.94 843 24.89 2.7 36.9 73 -1.6 29.2 3.099 0.122
05:39 1014 29.94 843 24.89 2.6 36.7 73 -1.8 28.8 2.957 0.116
05:40 1014 29.94 843 24.89 2.5 36.5 73 -1.8 28.7 2.754 0.108
05:41 1014 29.94 843 24.89 2.3 36.1 74 -1.9 28.6 2.516 0.099
05:42 1014 29.94 843 24.89 2 35.7 75 -2 28.5 2.335 0.092
05:43 1014 29.94 843 24.89 1.8 35.3 75 -2.1 28.3 2.21 0.087
05:44 1014 29.94 843 24.89 1.8 35.2 75 -2.1 28.2 2.176 0.086
05:45 1014 29.94 843 24.89 1.7 35.1 76 -2.1 28.2 2.114 0.083
05:46 1014 29.94 843 24.89 1.7 35 76 -2.1 28.2 2.023 0.08
05:47 1014 29.94 843 24.89 1.6 34.8 77 -2.1 28.2 1.961 0.077
05:48 1014 29.94 843 24.89 1.5 34.7 77 -2 28.3 1.831 0.072
05:49 1014 29.94 843 24.89 1.4 34.5 78 -1.9 28.5 1.797 0.071
05:50 1014 29.94 843 24.89 1.4 34.4 79 -2 28.5 1.803 0.071
05:51 1014 29.94 843 24.89 1.4 34.5 79 -1.9 28.5 1.848 0.073
05:52 1014 29.94 843 24.89 1.4 34.6 78 -2 28.4 1.853 0.073
05:53 1014 29.94 843 24.89 1.5 34.7 77 -2 28.4 1.972 0.078
05:54 1014 29.94 843 24.89 1.7 35.1 76 -2.1 28.2 2.154 0.085
05:55 1014 29.94 843 24.89 1.9 35.3 76 -2 28.4 2.301 0.091
05:56 1014 29.94 843 24.89 1.9 35.3 75 -2.1 28.3 2.272 0.089
05:57 1014 29.94 843 24.89 1.9 35.5 75 -2.1 28.2 2.329 0.092
05:58 1014 29.94 843 24.89 2 35.5 75 -2 28.4 2.346 0.092
05:59 1014 29.94 843 24.89 1.9 35.4 75 -2 28.3 2.284 0.09
06:00 1014 29.94 843 24.89 1.9 35.4 75 -2.2 28.1 2.329 0.092
06:01 1014 29.94 843 24.89 2 35.6 74 -2.2 28 2.465 0.097
06:02 1014 29.94 843 24.89 2.1 35.8 71 -2.6 27.4 2.521 0.099
06:03 1014 29.94 843 24.89 2 35.7 69 -3.1 26.3 2.408 0.095
06:04 1014 29.94 843 24.89 1.9 35.5 69 -3.2 26.2 2.295 0.09
06:05 1014 29.94 843 24.89 1.8 35.3 68 -3.6 25.6 2.108 0.083
06:06 1014 29.94 843 24.89 1.7 35 68 -3.7 25.4 1.967 0.077
06:07 1014 29.94 843 24.89 1.5 34.7 68 -3.8 25.2 1.853 0.073
06:08 1014 29.94 843 24.89 1.4 34.5 68 -3.8 25.1 1.763 0.069
06:09 1014 29.94 843 24.89 1.3 34.4 69 -3.8 25.1 1.695 0.067
06:10 1014 29.94 843 24.89 1.2 34.2 72 -3.2 26.3 1.633 0.064
06:11 1014 29.94 843 24.89 1.2 34.2 70 -3.6 25.6 1.661 0.065
06:12 1014 29.94 843 24.89 1.3 34.3 71 -3.4 25.8 1.746 0.069
06:13 1014 29.94 843 24.89 1.3 34.4 69 -3.8 25.1 1.701 0.067
06:14 1014 29.94 843 24.89 1.3 34.4 70 -3.6 25.5 1.667 0.066
06:15 1014 29.94 843 24.89 1.1 34.1 70 -3.8 25.2 1.474 0.058
06:16 1014 29.94 843 24.89 1 33.8 71 -3.8 25.2 1.372 0.054
06:17 1014 29.94 843 24.89 0.9 33.6 71 -3.7 25.3 1.282 0.05
06:18 1014 29.94 843 24.89 0.8 33.4 72 -3.8 25.2 1.14 0.045
06:19 1014 29.94 843 24.89 0.7 33.2 72 -3.8 25.1 1.016 0.04
06:20 1014 29.94 843 24.89 0.6 33.1 72 -3.9 25.1 .953 0.038
06:21 1014 29.94 843 24.89 0.5 32.9 73 -3.8 25.1 .846 0.033
06:22 1014 29.94 843 24.89 0.4 32.7 73 -3.9 25 .767 0.03
06:23 1014 29.94 843 24.89 0.3 32.6 74 -3.8 25.1 .682 0.027
06:24 1014 29.94 843 24.89 0.2 32.3 73 -4 24.7 .557 0.022
06:25 1014 29.94 843 24.89 0.1 32.2 73 -4.1 24.6 .517 0.02
06:26 1014 29.94 843 24.89 0.1 32.1 74 -4.1 24.7 .449 0.018
06:27 1014 29.94 843 24.89 0 32.1 73 -4.2 24.4 .399 0.016
06:28 1014 29.94 843 24.89 0.1 32.2 72 -4.3 24.2 .568 0.022
06:29 1014 29.94 843 24.89 0.2 32.4 72 -4.3 24.3 .682 0.027
06:30 1014 29.94 843 24.89 0.3 32.6 72 -4.1 24.6 .704 0.028
06:31 1014 29.94 843 24.89 0.3 32.6 72 -4.2 24.5 .767 0.03
06:32 1014 29.94 843 24.89 0.4 32.7 73 -4 24.8 .783 0.031
06:33 1014 29.94 843 24.89 0.3 32.6 74 -3.9 25 .687 0.027
06:34 1014 29.94 843 24.89 0.2 32.4 74 -3.9 25 .636 0.025
06:35 1014 29.94 843 24.89 0.2 32.3 74 -3.9 24.9 .585 0.023
06:36 1014 29.94 843 24.89 0.2 32.3 74 -3.9 25 .625 0.025
06:37 1014 29.94 843 24.89 0.2 32.3 74 -4 24.9 .608 0.024
06:38 1014 29.94 843 24.89 0.2 32.3 74 -3.9 25 .614 0.024
06:39 1014 29.94 843 24.89 0.2 32.3 74 -4 24.8 .602 0.024
06:40 1014 29.94 843 24.89 0.2 32.4 73 -4 24.8 .653 0.026
06:41 1014 29.94 843 24.89 0.3 32.5 74 -3.8 25.2 .721 0.028
06:42 1014 29.94 843 24.89 0.3 32.5 74 -3.9 25 .75 0.03
06:43 1014 29.94 843 24.89 0.4 32.7 73 -3.9 25 .846 0.033
06:44 1014 29.94 843 24.89 0.5 33 73 -3.7 25.3 .948 0.037
06:45 1014 29.94 843 24.89 0.6 33 74 -3.6 25.5 1.016 0.04
06:46 1014 29.94 843 24.89 0.6 33.1 73 -3.6 25.4 1.061 0.042
06:47 1014 29.94 843 24.89 0.7 33.2 74 -3.4 25.8 1.157 0.046
06:48 1014 29.94 843 24.89 0.8 33.4 73 -3.6 25.6 1.185 0.047
06:49 1014 29.94 843 24.89 0.8 33.4 72 -3.6 25.4 1.236 0.049
06:50 1014 29.94 843 24.89 0.9 33.6 72 -3.7 25.4 1.316 0.052
06:51 1014 29.94 843 24.89 1 33.8 72 -3.6 25.5 1.412 0.056
06:52 1014 29.94 843 24.89 1.1 33.9 71 -3.6 25.5 1.491 0.059
06:53 1014 29.94 843 24.89 1.1 34 72 -3.4 25.8 1.57 0.062
06:54 1014 29.94 843 24.89 1.2 34.1 70 -3.7 25.4 1.599 0.063
06:55 1014 29.94 843 24.89 1.2 34.2 71 -3.5 25.7 1.638 0.064
06:56 1014 29.94 843 24.89 1.2 34.2 70 -3.7 25.4 1.667 0.066
06:57 1014 29.94 843 24.89 1.3 34.3 71 -3.4 25.8 1.678 0.066
06:58 1014 29.94 843 24.89 1.3 34.4 71 -3.4 25.8 1.74 0.069
06:59 1014 29.94 844 24.92 1.4 34.5 69 -3.7 25.3 1.769 0.07
07:00 1014 29.94 844 24.92 1.4 34.6 67 -4.1 24.7 1.865 0.073
07:01 1014 29.94 843 24.89 1.5 34.7 68 -3.7 25.3 1.933 0.076
07:02 1014 29.94 844 24.92 1.6 34.9 69 -3.4 25.8 2.001 0.079
07:03 1014 29.94 844 24.92 1.6 35 67 -3.8 25.1 2.063 0.081
07:04 1014 29.94 844 24.92 1.7 35 68 -3.7 25.4 2.137 0.084
07:05 1014 29.94 844 24.92 1.8 35.2 70 -3.2 26.2 2.187 0.086
07:06 1014 29.94 844 24.92 1.8 35.2 69 -3.2 26.2 2.244 0.088
07:07 1014 29.94 844 24.92 1.9 35.4 69 -3.2 26.2 2.301 0.091
07:08 1014 29.94 844 24.92 1.9 35.5 67 -3.6 25.4 2.34 0.092
07:09 1014 29.94 844 24.92 1.9 35.5 67 -3.5 25.7 2.357 0.093
07:10 1014 29.94 844 24.92 2 35.6 68 -3.3 26 2.403 0.095
07:11 1014 29.94 844 24.92 2 35.6 66 -3.7 25.4 2.414 0.095
07:12 1015 29.97 844 24.92 2.1 35.7 64 -3.9 24.9 2.465 0.097
07:13 1015 29.97 844 24.92 2.1 35.7 64 -4 24.8 2.482 0.098
07:14 1015 29.97 844 24.92 2.1 35.8 67 -3.3 26 2.516 0.099
07:15 1015 29.97 844 24.92 2.2 35.9 65 -3.8 25.1 2.555 0.101
07:16 1015 29.97 844 24.92 2.2 35.9 65 -3.8 25.2 2.561 0.101
07:17 1015 29.97 844 24.92 2.2 35.9 67 -3.3 26 2.635 0.104
07:18 1015 29.97 844 24.92 2.3 36.1 70 -2.6 27.4 2.742 0.108
07:19 1015 29.97 844 24.92 2.4 36.2 66 -3.4 25.9 2.799 0.11
07:20 1015 29.97 844 24.92 2.4 36.2 67 -3.2 26.3 2.799 0.11
07:21 1015 29.97 844 24.92 2.4 36.4 65 -3.6 25.6 2.867 0.113
07:22 1015 29.97 844 24.92 2.5 36.5 68 -2.8 27 2.918 0.115
07:23 1015 29.97 844 24.92 2.5 36.5 66 -3.2 26.2 2.94 0.116
07:24 1015 29.97 844 24.92 2.6 36.7 63 -3.7 25.3 2.98 0.117
07:25 1015 29.97 844 24.92 2.6 36.7 62 -4 24.9 2.986 0.118
07:26 1015 29.97 844 24.92 2.6 36.7 63 -3.6 25.5 2.969 0.117
07:27 1015 29.97 844 24.92 2.6 36.7 62 -3.9 24.9 2.974 0.117
07:28 1015 29.97 844 24.92 2.6 36.6 62 -4 24.7 2.98 0.117
07:29 1015 29.97 844 24.92 2.6 36.7 62 -3.9 25 3.037 0.12
07:30 1015 29.97 844 24.92 2.6 36.8 61 -4 24.7 3.059 0.12
07:31 1015 29.97 844 24.92 2.7 36.8 65 -3.3 26.1 3.059 0.12
07:32 1015 29.97 844 24.92 2.7 36.9 66 -3.1 26.5 3.156 0.124
07:33 1015 29.97 844 24.92 2.8 37 62 -3.7 25.3 3.195 0.126
07:34 1015 29.97 844 24.92 2.8 37.1 66 -2.8 26.9 3.184 0.125
07:35 1015 29.97 844 24.92 2.8 37.1 62 -3.9 25.1 3.235 0.127
07:36 1015 29.97 844 24.92 2.8 37.1 62 -3.8 25.2 3.195 0.126
07:37 1015 29.97 844 24.92 2.8 37.1 62 -3.7 25.3 3.184 0.125
07:38 1015 29.97 844 24.92 2.8 37 61 -3.9 25 3.212 0.126
07:39 1015 29.97 844 24.92 2.8 37.1 60 -4.2 24.4 3.229 0.127
07:40 1015 29.97 844 24.92 2.8 37.1 64 -3.3 26 3.274 0.129
07:41 1015 29.97 844 24.92 2.9 37.3 63 -3.5 25.7 3.308 0.13
07:42 1015 29.97 844 24.92 2.9 37.3 63 -3.4 25.8 3.354 0.132
07:43 1015 29.97 844 24.92 3 37.3 66 -2.8 27 3.41 0.134
07:44 1015 29.97 844 24.92 3 37.5 65 -3 26.6 3.478 0.137
07:45 1015 29.97 844 24.92 3.1 37.5 60 -3.9 25.1 3.49 0.137
07:46 1015 29.97 844 24.92 3 37.5 62 -3.6 25.5 3.473 0.137
07:47 1015 29.97 844 24.92 3.1 37.5 63 -3.3 26 3.478 0.137
07:48 1015 29.97 844 24.92 3.1 37.6 61 -3.6 25.6 3.524 0.139
07:49 1015 29.97 844 24.92 3.2 37.7 62 -3.5 25.7 3.529 0.139
07:50 1015 29.97 844 24.92 3.2 37.7 61 -3.6 25.5 3.563 0.14
07:51 1015 29.97 844 24.92 3.2 37.8 63 -3.1 26.5 3.648 0.144
07:52 1015 29.97 844 24.92 3.3 37.9 62 -3.3 26 3.727 0.147
07:53 1015 29.97 844 24.92 3.4 38.1 62 -3.3 26.1 3.716 0.146
07:54 1015 29.97 844 24.92 3.4 38.1 61 -3.3 26 3.79 0.149
07:55 1015 29.97 844 24.92 3.5 38.2 62 -3.2 26.3 3.784 0.149
07:56 1015 29.97 844 24.92 3.5 38.2 61 -3.4 25.9 3.824 0.151
07:57 1015 29.97 844 24.92 3.5 38.3 60 -3.6 25.6 3.812 0.15
07:58 1015 29.97 844 24.92 3.5 38.2 60 -3.5 25.7 3.812 0.15
07:59 1015 29.97 844 24.92 3.5 38.3 59 -3.7 25.3 3.852 0.152
08:00 1015 29.97 844 24.92 3.5 38.4 61 -3.4 26 3.886 0.153
08:01 1015 29.97 844 24.92 3.7 38.6 59 -3.7 25.4 3.988 0.157
08:02 1015 29.97 844 24.92 3.8 38.8 59 -3.5 25.7 4.101 0.161
08:03 1015 29.97 844 24.92 4 39.1 62 -2.6 27.3 4.248 0.167
08:04 1015 29.97 844 24.92 4 39.2 58 -3.4 25.8 4.303 0.169
08:05 1014 29.94 844 24.92 4 39.2 60 -3.2 26.3 4.275 0.168
08:06 1015 29.97 844 24.92 4 39.2 61 -2.9 26.8 4.224 0.166
08:07 1015 29.97 844 24.92 4.1 39.3 57 -3.6 25.6 4.36 0.172
08:08 1014 29.94 844 24.92 4.2 39.5 58 -3.4 25.9 4.366 0.172
08:09 1014 29.94 844 24.92 4.1 39.4 58 -3.3 26 4.394 0.173
08:10 1014 29.94 844 24.92 4.2 39.5 57 -3.5 25.6 4.427 0.174
08:11 1014 29.94 844 24.92 4.2 39.5 58 -3.5 25.8 4.404 0.173
08:12 1014 29.94 844 24.92 4.2 39.5 59 -3.2 26.3 4.46 0.176
08:13 1014 29.94 844 24.92 4.3 39.7 60 -2.9 26.8 4.494 0.177
08:14 1014 29.94 844 24.92 4.3 39.7 60 -2.7 27.2 4.528 0.178
08:15 1014 29.94 844 24.92 4.4 39.9 61 -2.4 27.7 4.675 0.184
08:16 1014 29.94 844 24.92 4.5 40 57 -3.4 25.9 4.731 0.186
08:17 1014 29.94 844 24.92 4.5 40.1 58 -3 26.6 4.708 0.185
08:18 1014 29.94 844 24.92 4.5 40.1 60 -2.5 27.5 4.792 0.189
08:19 1014 29.94 844 24.92 4.6 40.4 58 -2.9 26.7 4.972 0.196
08:20 1014 29.94 844 24.92 4.7 40.5 59 -2.7 27.1 4.995 0.197
08:21 1014 29.94 844 24.92 4.8 40.7 59 -2.6 27.4 5.101 0.201
08:22 1014 29.94 844 24.92 4.9 40.9 61 -1.9 28.6 5.225 0.206
08:23 1014 29.94 844 24.92 5 40.9 59 -2.5 27.6 5.265 0.207
08:24 1014 29.94 844 24.92 5.1 41.1 60 -2 28.5 5.331 0.21
08:25 1014 29.94 844 24.92 5.2 41.3 59 -2.2 28.1 5.422 0.213
08:26 1014 29.94 844 24.92 5.2 41.4 59 -2.1 28.1 5.439 0.214
08:27 1014 29.94 844 24.92 5.2 41.3 59 -2.2 28.1 5.387 0.212
08:28 1014 29.94 844 24.92 5.2 41.3 59 -2.3 27.9 5.454 0.215
08:29 1014 29.94 844 24.92 5.3 41.5 61 -1.7 28.9 5.483 0.216
08:30 1014 29.94 844 24.92 5.3 41.5 57 -2.4 27.6 5.556 0.219
08:31 1014 29.94 844 24.92 5.3 41.5 58 -2.2 28 5.533 0.218
08:32 1014 29.94 844 24.92 5.3 41.5 57 -2.6 27.4 5.544 0.218
08:33 1014 29.94 844 24.92 5.2 41.3 60 -1.9 28.7 5.515 0.217
08:34 1014 29.94 844 24.92 5.1 41.1 59 -2.3 27.8 5.351 0.211
08:35 1014 29.94 844 24.92 4.9 40.9 63 -1.4 29.4 5.317 0.209
08:36 1014 29.94 844 24.92 5 41 58 -2.5 27.5 5.299 0.209
08:37 1014 29.94 844 24.92 5 40.9 59 -2.3 27.9 5.192 0.204
08:38 1014 29.94 844 24.92 4.9 40.8 60 -2.1 28.2 5.203 0.205
08:39 1014 29.94 844 24.92 4.9 40.8 61 -1.9 28.5 5.169 0.204
08:40 1014 29.94 844 24.92 4.8 40.7 62 -1.9 28.6 5.135 0.202
08:41 1014 29.94 844 24.92 4.8 40.6 62 -1.8 28.8 5.106 0.201
08:42 1014 29.94 844 24.92 4.8 40.6 60 -2.4 27.7 5.089 0.2
08:43 1014 29.94 844 24.92 4.8 40.6 59 -2.5 27.5 5.027 0.198
08:44 1014 29.94 844 24.92 4.8 40.6 61 -2 28.4 5.1 0.201
08:45 1014 29.94 844 24.92 4.9 40.8 60 -2.3 27.9 5.202 0.205
08:46 1014 29.94 844 24.92 4.9 40.8 60 -2.2 28.1 5.191 0.204
08:47 1014 29.94 844 24.92 4.9 40.9 59 -2.4 27.7 5.252 0.207
08:48 1014 29.94 844 24.92 5 40.9 61 -1.9 28.6 5.274 0.208
08:49 1014 29.94 844 24.92 5 41 58 -2.6 27.3 5.28 0.208
08:50 1014 29.94 844 24.92 5 41.1 59 -2.2 28 5.302 0.209
08:51 1014 29.94 844 24.92 5.1 41.1 58 -2.5 27.5 5.312 0.209
08:52 1014 29.94 844 24.92 5.1 41.1 62 -1.5 29.3 5.284 0.208
08:53 1014 29.94 844 24.92 5.1 41.2 59 -2.2 28.1 5.323 0.21
08:54 1014 29.94 844 24.92 5.1 41.2 59 -2.1 28.1 5.362 0.211
08:55 1014 29.94 844 24.92 5.2 41.3 61 -1.7 29 5.452 0.215
08:56 1014 29.94 844 24.92 5.4 41.7 58 -2.2 28.1 5.661 0.223
08:57 1014 29.94 844 24.92 5.7 42.2 60 -1.6 29.1 5.91 0.233
08:58 1014 29.94 844 24.92 5.9 42.5 61 -1.1 30 6.068 0.239
08:59 1014 29.94 844 24.92 5.9 42.7 58 -1.6 29.1 6.198 0.244
09:00 1014 29.94 844 24.92 5.9 42.6 58 -1.7 28.9 6.113 0.241
09:01 1014 29.94 844 24.92 5.8 42.5 60 -1.3 29.6 6.039 0.238
09:02 1014 29.94 844 24.92 5.8 42.4 61 -1.2 29.8 6.056 0.238
09:03 1014 29.94 844 24.92 5.8 42.4 59 -1.7 29 6.09 0.24
09:04 1014 29.94 844 24.92 5.8 42.4 62 -0.9 30.4 6.073 0.239
09:05 1014 29.94 844 24.92 5.8 42.5 58 -1.8 28.8 6.173 0.243
09:06 1014 29.94 844 24.92 5.8 42.5 58 -1.8 28.8 6.144 0.242
09:07 1014 29.94 844 24.92 5.9 42.7 58 -1.7 28.9 6.218 0.245
09:08 1014 29.94 844 24.92 5.9 42.6 63 -0.6 30.9 6.188 0.244
09:09 1014 29.94 843 24.89 6 42.8 58 -1.6 29.1 6.335 0.249
09:10 1014 29.94 843 24.89 6 42.8 60 -1.1 30 6.267 0.247
09:11 1014 29.94 843 24.89 6.1 42.9 61 -1 30.2 6.39 0.252
09:12 1014 29.94 843 24.89 6.1 43 64 -0.2 31.6 6.464 0.254
09:13 1014 29.94 843 24.89 6.2 43.1 63 -0.3 31.5 6.532 0.257
09:14 1014 29.94 843 24.89 6.2 43.1 57 -1.8 28.8 6.474 0.255
09:15 1014 29.94 843 24.89 6 42.8 58 -1.7 29 6.316 0.249
09:16 1014 29.94 843 24.89 6 42.8 59 -1.4 29.4 6.338 0.25
09:17 1014 29.94 843 24.89 6.1 43 61 -0.8 30.5 6.467 0.255
09:18 1014 29.94 844 24.92 6.2 43.2 61 -0.6 30.9 6.552 0.258
09:19 1014 29.94 844 24.92 6.3 43.4 60 -1 30.3 6.694 0.264
09:20 1014 29.94 844 24.92 6.5 43.6 60 -0.8 30.6 6.795 0.268
09:21 1014 29.94 844 24.92 6.5 43.7 57 -1.3 29.7 6.778 0.267
09:22 1014 29.94 844 24.92 6.5 43.8 62 -0.2 31.6 6.84 0.269
09:23 1014 29.94 843 24.89 6.6 43.9 59 -0.8 30.6 6.981 0.275
09:24 1014 29.94 843 24.89 6.6 43.9 59 -0.9 30.5 6.896 0.271
09:25 1014 29.94 843 24.89 6.6 43.8 61 -0.4 31.2 6.902 0.272
09:26 1014 29.94 843 24.89 6.7 44 63 0.1 32.1 7 0.276
09:27 1014 29.94 843 24.89 6.7 44.1 59 -0.6 30.9 7.04 0.277
09:28 1014 29.94 843 24.89 6.8 44.2 61 -0.3 31.5 7.09 0.279
09:29 1014 29.94 843 24.89 6.9 44.4 58 -0.8 30.6 7.13 0.281
09:30 1014 29.94 843 24.89 6.9 44.5 58 -0.7 30.8 7.23 0.285
09:31 1014 29.94 843 24.89 7 44.5 57 -1 30.3 7.2 0.283
09:32 1014 29.94 843 24.89 6.9 44.5 58 -0.8 30.5 7.13 0.281
09:33 1014 29.94 843 24.89 6.9 44.4 61 -0.1 31.9 7.16 0.282
09:34 1014 29.94 843 24.89 7 44.5 58 -0.7 30.7 7.31 0.288
09:35 1014 29.94 843 24.89 7.2 44.9 57 -0.9 30.4 7.51 0.296
09:36 1014 29.94 844 24.92 7.2 45 60 -0 32 7.49 0.295
09:37 1014 29.94 843 24.89 7.3 45.1 64 1 33.8 7.65 0.301
09:38 1014 29.94 844 24.92 7.4 45.4 55 -0.9 30.3 7.75 0.305
09:39 1014 29.94 843 24.89 7.4 45.3 56 -0.8 30.5 7.58 0.298
09:40 1014 29.94 843 24.89 7.3 45.2 56 -0.9 30.4 7.55 0.297
09:41 1014 29.94 843 24.89 7.3 45.2 57 -0.7 30.7 7.63 0.3
09:42 1014 29.94 843 24.89 7.4 45.3 59 -0.1 31.8 7.64 0.301
09:43 1014 29.94 843 24.89 7.4 45.4 60 0.2 32.4 7.78 0.306
09:44 1014 29.94 843 24.89 7.5 45.5 57 -0.5 31.1 7.94 0.313
09:45 1014 29.94 843 24.89 7.6 45.6 60 0.3 32.5 7.89 0.311
09:46 1014 29.94 843 24.89 7.6 45.6 59 0.1 32.2 7.93 0.312
09:47 1014 29.94 843 24.89 7.6 45.7 57 -0.3 31.5 8.02 0.316
09:48 1014 29.94 843 24.89 7.7 45.9 56 -0.5 31.1 8.09 0.319
09:49 1014 29.94 843 24.89 7.7 45.8 57 -0.3 31.5 7.99 0.315
09:50 1014 29.94 844 24.92 7.7 45.8 56 -0.5 31.1 8.06 0.317
09:51 1014 29.94 844 24.92 7.6 45.7 58 -0.2 31.7 7.97 0.314
09:52 1014 29.94 843 24.89 7.6 45.7 57 -0.4 31.3 7.96 0.313
09:53 1014 29.94 843 24.89 7.7 45.8 58 0 32 8.06 0.317
09:54 1014 29.94 843 24.89 7.7 45.9 57 -0.1 31.7 8.03 0.316
09:55 1014 29.94 843 24.89 7.6 45.6 59 0.2 32.3 7.93 0.312
09:56 1014 29.94 843 24.89 7.7 45.8 57 -0.3 31.4 8.07 0.318
09:57 1014 29.94 843 24.89 7.7 45.9 60 0.4 32.7 8.1 0.319
09:58 1014 29.94 843 24.89 7.7 45.9 60 0.4 32.8 8.1 0.319
09:59 1014 29.94 843 24.89 7.8 46 57 -0.1 31.8 8.12 0.32
10:00 1014 29.94 843 24.89 7.7 45.8 56 -0.5 31.1 8 0.315
10:01 1014 29.94 843 24.89 7.6 45.7 61 0.7 33.2 7.99 0.315
10:02 1014 29.94 843 24.89 7.6 45.7 59 0.1 32.2 7.97 0.314
10:03 1014 29.94 843 24.89 7.7 45.9 58 -0 31.9 8.13 0.32
10:04 1014 29.94 843 24.89 7.8 46 58 -0 32 8.08 0.318
10:05 1014 29.94 843 24.89 7.7 45.8 59 0.2 32.4 8.09 0.319
10:06 1014 29.94 843 24.89 7.7 45.8 59 0.2 32.4 8.07 0.318
10:07 1014 29.94 843 24.89 7.7 45.8 60 0.3 32.6 8.15 0.321
10:08 1014 29.94 843 24.89 7.7 45.9 58 0 32 8.19 0.322
10:09 1014 29.94 843 24.89 7.7 45.8 60 0.3 32.6 8.1 0.319
10:10 1014 29.94 843 24.89 7.7 45.9 61 0.6 33.1 8.14 0.32
10:11 1014 29.94 843 24.89 7.8 46.1 58 0.2 32.3 8.18 0.322
10:12 1014 29.94 843 24.89 7.9 46.2 63 1.3 34.4 8.32 0.328
10:13 1014 29.94 843 24.89 8.1 46.5 59 0.5 32.9 8.47 0.333
10:14 1014 29.94 843 24.89 8.1 46.5 59 0.6 33.1 8.41 0.331
10:15 1014 29.94 843 24.89 8 46.4 58 0.3 32.6 8.33 0.328
10:16 1014 29.94 843 24.89 8 46.4 57 0.1 32.1 8.36 0.329
10:17 1014 29.94 843 24.89 7.9 46.3 56 -0.4 31.3 8.21 0.323
10:18 1014 29.94 843 24.89 7.9 46.2 60 0.6 33.2 8.24 0.324
10:19 1014 29.94 843 24.89 8 46.5 58 0.3 32.5 8.42 0.331
10:20 1014 29.94 843 24.89 8 46.4 56 -0.2 31.7 8.36 0.329
10:21 1014 29.94 843 24.89 7.8 46.1 62 1 33.8 8.27 0.326
10:22 1014 29.94 843 24.89 8 46.4 58 0.2 32.4 8.41 0.331
10:23 1014 29.94 843 24.89 8 46.3 59 0.4 32.7 8.36 0.329
10:24 1014 29.94 843 24.89 8 46.5 59 0.4 32.8 8.49 0.334
10:25 1014 29.94 843 24.89 8.2 46.7 59 0.6 33.1 8.63 0.34
10:26 1014 29.94 843 24.89 8.2 46.8 57 0.3 32.6 8.65 0.341
10:27 1014 29.94 843 24.89 8.2 46.8 56 0 32 8.56 0.337
10:28 1014 29.94 843 24.89 8.2 46.8 57 0.2 32.4 8.59 0.338
10:29 1014 29.94 843 24.89 8.2 46.7 56 0 32 8.59 0.338
10:30 1014 29.94 843 24.89 8.1 46.5 59 0.6 33.2 8.45 0.333
10:31 1014 29.94 843 24.89 8.1 46.6 56 -0.1 31.9 8.47 0.333
10:32 1014 29.94 843 24.89 8.1 46.6 59 0.7 33.2 8.47 0.333
10:33 1014 29.94 843 24.89 8.3 46.9 60 1 33.9 8.7 0.343
10:34 1014 29.94 843 24.89 8.5 47.2 55 0 32 8.76 0.345
10:35 1014 29.94 843 24.89 8.3 47 56 0.1 32.2 8.59 0.338
10:36 1014 29.94 843 24.89 8.3 46.9 59 0.8 33.4 8.6 0.339
10:37 1014 29.94 843 24.89 8.4 47.1 57 0.3 32.6 8.73 0.344
10:38 1014 29.94 843 24.89 8.3 46.9 56 0.2 32.3 8.58 0.338
10:39 1014 29.94 843 24.89 8.2 46.8 60 1 33.8 8.51 0.335
10:40 1014 29.94 843 24.89 8.3 47 60 1.1 33.9 8.7 0.343
10:41 1014 29.94 843 24.89 8.3 47 60 1 33.8 8.74 0.344
10:42 1014 29.94 843 24.89 8.4 47.1 58 0.7 33.2 8.8 0.346
10:43 1014 29.94 843 24.89 8.4 47.1 59 0.9 33.6 8.84 0.348
10:44 1014 29.94 843 24.89 8.5 47.3 59 0.9 33.7 8.91 0.351
10:45 1014 29.94 843 24.89 8.4 47 57 0.4 32.6 8.71 0.343
10:46 1014 29.94 843 24.89 8.3 46.9 58 0.5 32.9 8.58 0.338
10:47 1014 29.94 843 24.89 8.1 46.6 58 0.4 32.7 8.48 0.334
10:48 1014 29.94 843 24.89 8.1 46.7 58 0.3 32.6 8.5 0.335
10:49 1014 29.94 843 24.89 8.2 46.8 56 0.1 32.2 8.59 0.338
10:50 1014 29.94 843 24.89 8.2 46.7 59 0.6 33.1 8.5 0.335
10:51 1014 29.94 843 24.89 8.2 46.7 60 0.8 33.5 8.49 0.334
10:52 1014 29.94 843 24.89 8.1 46.7 60 0.9 33.6 8.41 0.331
10:53 1014 29.94 843 24.89 8.1 46.6 58 0.3 32.5 8.46 0.333
10:54 1014 29.94 843 24.89 8.2 46.7 59 0.6 33 8.5 0.335
10:55 1014 29.94 843 24.89 8.1 46.5 59 0.5 32.8 8.34 0.328
10:56 1014 29.94 843 24.89 8 46.4 60 0.7 33.2 8.31 0.327
10:57 1014 29.94 843 24.89 8.1 46.6 59 0.6 33.1 8.45 0.333
10:58 1014 29.94 843 24.89 8.3 46.9 60 1.1 33.9 8.68 0.342
10:59 1014 29.94 843 24.89 8.5 47.3 57 0.4 32.8 8.9 0.35
11:00 1014 29.94 843 24.89 8.7 47.6 59 1.1 34 8.97 0.353
11:01 1014 29.94 843 24.89 8.7 47.7 55 0.3 32.6 9.03 0.356
11:02 1014 29.94 843 24.89 8.7 47.6 59 1 33.9 8.99 0.354
11:03 1014 29.94 843 24.89 8.7 47.7 59 1.1 34 9.04 0.356
11:04 1014 29.94 843 24.89 8.6 47.4 60 1.3 34.3 8.92 0.351
11:05 1014 29.94 843 24.89 8.5 47.4 59 1 33.8 8.95 0.352
11:06 1014 29.94 843 24.89 8.6 47.6 57 0.7 33.3 8.97 0.353
11:07 1014 29.94 843 24.89 8.5 47.4 59 1.1 34 8.81 0.347
11:08 1014 29.94 843 24.89 8.5 47.4 56 0.2 32.4 8.89 0.35
11:09 1014 29.94 843 24.89 8.5 47.4 57 0.5 32.9 8.9 0.35
11:10 1014 29.94 843 24.89 8.5 47.4 58 0.8 33.5 8.86 0.349
11:11 1014 29.94 843 24.89 8.6 47.5 59 1 33.9 8.98 0.354
11:12 1014 29.94 843 24.89 8.7 47.6 56 0.4 32.8 9.01 0.355
11:13 1014 29.94 843 24.89 8.7 47.6 56 0.4 32.7 9.03 0.356
11:14 1014 29.94 843 24.89 8.7 47.6 56 0.4 32.7 9.01 0.355
11:15 1014 29.94 843 24.89 8.6 47.4 60 1.2 34.2 8.89 0.35
11:16 1014 29.94 843 24.89 8.6 47.5 62 1.7 35 9.03 0.356
11:17 1014 29.94 843 24.89 8.7 47.7 60 1.4 34.6 9.06 0.357
11:18 1014 29.94 843 24.89 8.7 47.7 58 1 33.9 9.07 0.357
11:19 1014 29.94 843 24.89 8.7 47.7 58 1 33.8 9.1 0.358
11:20 1014 29.94 843 24.89 8.8 47.8 58 1.1 33.9 9.27 0.365
11:21 1014 29.94 843 24.89 8.9 48.1 55 0.3 32.5 9.24 0.364
11:22 1014 29.94 843 24.89 8.7 47.7 62 1.9 35.4 9.13 0.359
11:23 1014 29.94 843 24.89 9 48.3 55 0.6 33 9.51 0.374
11:24 1014 29.94 843 24.89 9.1 48.4 60 1.7 35.1 9.49 0.374
11:25 1014 29.94 843 24.89 9.2 48.5 57 1.2 34.2 9.64 0.38
11:26 1014 29.94 843 24.89 9.3 48.7 58 1.5 34.7 9.72 0.383
11:27 1014 29.94 843 24.89 9.4 49 54 0.7 33.3 9.82 0.387
11:28 1014 29.94 843 24.89 9.3 48.7 58 1.5 34.7 9.7 0.382
11:29 1014 29.94 843 24.89 9.3 48.8 55 0.7 33.2 9.71 0.382
11:30 1014 29.94 843 24.89 9.1 48.4 55 0.6 33.2 9.44 0.372
11:31 1014 29.94 843 24.89 9.1 48.4 54 0.3 32.6 9.52 0.375
11:32 1014 29.94 843 24.89 9.1 48.3 54 0.4 32.6 9.41 0.37
11:33 1014 29.94 843 24.89 9 48.2 55 0.5 33 9.33 0.367
11:34 1014 29.94 843 24.89 8.9 48 54 0.2 32.4 9.25 0.364
11:35 1014 29.94 843 24.89 8.9 47.9 55 0.3 32.6 9.23 0.363
11:36 1014 29.94 843 24.89 8.9 48.1 56 0.7 33.3 9.27 0.365
11:37 1014 29.94 843 24.89 8.9 48.1 56 0.6 33 9.3 0.366
11:38 1014 29.94 843 24.89 9 48.1 57 1 33.7 9.34 0.368
11:39 1014 29.94 843 24.89 9.1 48.4 59 1.6 34.9 9.44 0.372
11:40 1014 29.94 843 24.89 9.2 48.5 56 0.9 33.7 9.51 0.374
11:41 1014 29.94 843 24.89 8.9 48.1 58 1.1 34.1 9.27 0.365
11:42 1014 29.94 843 24.89 8.7 47.7 59 1.1 34 9.05 0.356
11:43 1014 29.94 843 24.89 8.7 47.7 59 1.1 34 9.14 0.36
11:44 1014 29.94 843 24.89 8.9 48 58 1.1 34 9.32 0.367
11:45 1014 29.94 843 24.89 9.1 48.3 60 1.7 35 9.49 0.374
11:46 1014 29.94 843 24.89 9.3 48.8 56 1.2 34.1 9.73 0.383
11:47 1014 29.94 843 24.89 9.5 49.2 56 1.3 34.3 9.85 0.388
11:48 1014 29.94 843 24.89 9.5 49.1 54 0.8 33.5 9.87 0.389
11:49 1014 29.94 843 24.89 9.4 48.9 56 1.2 34.1 9.65 0.38
11:50 1014 29.94 843 24.89 9.2 48.6 54 0.5 32.9 9.55 0.376
11:51 1014 29.94 843 24.89 9.1 48.5 55 0.7 33.2 9.47 0.373
11:52 1014 29.94 843 24.89 9.2 48.5 56 0.8 33.4 9.56 0.376
11:53 1014 29.94 843 24.89 9.1 48.3 55 0.6 33 9.41 0.37
11:54 1014 29.94 843 24.89 9 48.1 59 1.4 34.4 9.27 0.365
11:55 1014 29.94 843 24.89 9.1 48.4 58 1.4 34.5 9.55 0.376
11:56 1014 29.94 843 24.89 9.3 48.7 54 0.4 32.7 9.66 0.38
11:57 1014 29.94 843 24.89 9.1 48.5 55 0.7 33.3 9.49 0.374
11:58 1014 29.94 843 24.89 9.2 48.5 55 0.5 33 9.52 0.375
11:59 1014 29.94 843 24.89 9.2 48.6 57 1.2 34.2 9.6 0.378
12:00 1014 29.94 843 24.89 9.3 48.8 55 0.7 33.3 9.7 0.382
12:01 1014 29.94 843 24.89 9.2 48.6 55 0.7 33.2 9.53 0.375
12:02 1014 29.94 843 24.89 9.1 48.4 57 1.1 34 9.46 0.372
12:03 1014 29.94 843 24.89 9 48.2 59 1.4 34.5 9.39 0.37
12:04 1014 29.94 843 24.89 9.1 48.4 53 0 32.1 9.5 0.374
12:05 1014 29.94 843 24.89 9.1 48.3 54 0.2 32.3 9.4 0.37
12:06 1014 29.94 843 24.89 9.1 48.3 55 0.6 33.2 9.43 0.371
12:07 1014 29.94 843 24.89 9.2 48.5 55 0.6 33 9.6 0.378
12:08 1014 29.94 843 24.89 9.3 48.7 55 0.7 33.3 9.62 0.379
12:09 1014 29.94 843 24.89 9.1 48.5 57 1.1 34 9.5 0.374
12:10 1014 29.94 843 24.89 9.3 48.7 60 1.9 35.4 9.71 0.382
12:11 1014 29.94 843 24.89 9.5 49.1 55 1 33.8 9.88 0.389
12:12 1014 29.94 843 24.89 9.5 49.1 57 1.5 34.8 9.81 0.386
12:13 1014 29.94 843 24.89 9.4 49 56 1.2 34.2 9.85 0.388
12:14 1014 29.94 843 24.89 9.5 49 57 1.3 34.3 9.85 0.388
12:15 1014 29.94 843 24.89 9.4 49 57 1.4 34.5 9.84 0.387
12:16 1014 29.94 843 24.89 9.5 49 56 1.1 34 9.94 0.391
12:17 1014 29.94 843 24.89 9.5 49.1 53 0.5 32.9 9.86 0.388
12:18 1014 29.94 843 24.89 9.4 48.9 56 1.1 34 9.74 0.383
12:19 1014 29.94 843 24.89 9.3 48.8 57 1.2 34.2 9.73 0.383
12:20 1014 29.94 843 24.89 9.3 48.8 56 1.1 34 9.73 0.383
12:21 1014 29.94 843 24.89 9.3 48.7 59 1.7 35 9.58 0.377
12:22 1014 29.94 843 24.89 9.3 48.7 57 1.2 34.1 9.63 0.379
12:23 1014 29.94 843 24.89 9.3 48.7 58 1.5 34.6 9.71 0.382
12:24 1014 29.94 843 24.89 9.4 49 55 0.9 33.6 9.84 0.387
12:25 1014 29.94 843 24.89 9.4 49 55 1 33.8 9.82 0.387
12:26 1014 29.94 843 24.89 9.2 48.6 55 0.6 33.2 9.61 0.378
12:27 1014 29.94 843 24.89 9.1 48.4 60 1.7 35.1 9.5 0.374
12:28 1014 29.94 843 24.89 9.1 48.5 56 0.9 33.6 9.54 0.376
12:29 1014 29.94 843 24.89 9.1 48.4 57 1.1 34 9.46 0.372
12:30 1014 29.94 843 24.89 9.1 48.3 58 1.2 34.2 9.49 0.374
12:31 1014 29.94 843 24.89 9.2 48.6 60 1.9 35.5 9.66 0.38
12:32 1014 29.94 843 24.89 9.3 48.8 58 1.6 34.9 9.74 0.383
12:33 1014 29.94 843 24.89 9.3 48.8 58 1.6 34.9 9.69 0.381
12:34 1014 29.94 843 24.89 9.5 49 55 0.8 33.4 9.85 0.388
12:35 1014 29.94 843 24.89 9.3 48.8 57 1.3 34.4 9.67 0.381
12:36 1014 29.94 843 24.89 9.3 48.7 57 1.2 34.2 9.66 0.38
12:37 1014 29.94 843 24.89 9.2 48.6 56 0.9 33.7 9.59 0.378
12:38 1014 29.94 843 24.89 9.2 48.5 58 1.3 34.3 9.51 0.374
12:39 1014 29.94 843 24.89 9.2 48.5 55 0.7 33.2 9.58 0.377
12:40 1014 29.94 843 24.89 9.1 48.5 60 1.9 35.5 9.55 0.376
12:41 1014 29.94 843 24.89 9.3 48.7 57 1.2 34.1 9.66 0.38
12:42 1014 29.94 843 24.89 9.3 48.7 59 1.8 35.2 9.75 0.384
12:43 1014 29.94 843 24.89 9.4 48.9 59 1.9 35.5 9.82 0.387
12:44 1014 29.94 843 24.89 9.4 49 57 1.5 34.6 9.81 0.386
12:45 1014 29.94 843 24.89 9.4 48.9 60 2 35.6 9.8 0.386
12:46 1014 29.94 843 24.89 9.3 48.8 58 1.6 34.8 9.75 0.384
12:47 1014 29.94 843 24.89 9.2 48.6 57 1.2 34.2 9.67 0.381
12:48 1014 29.94 843 24.89 9.1 48.4 59 1.7 35 9.51 0.374
12:49 1014 29.94 843 24.89 9.2 48.5 61 2.1 35.9 9.64 0.38
12:50 1014 29.94 843 24.89 9.3 48.8 59 1.7 35.1 9.82 0.387
12:51 1013 29.91 843 24.89 9.4 48.9 57 1.3 34.3 9.79 0.385
12:52 1014 29.94 843 24.89 9.2 48.6 61 2.1 35.7 9.58 0.377
12:53 1014 29.94 843 24.89 9.2 48.6 60 1.8 35.3 9.58 0.377
12:54 1014 29.94 843 24.89 9.1 48.4 59 1.5 34.6 9.51 0.374
12:55 1014 29.94 843 24.89 9 48.1 58 1.3 34.3 9.34 0.368
12:56 1014 29.94 843 24.89 8.9 48 59 1.4 34.5 9.27 0.365
12:57 1014 29.94 843 24.89 8.8 47.8 61 1.8 35.2 9.21 0.363
12:58 1014 29.94 843 24.89 8.9 47.9 64 2.4 36.4 9.29 0.366
12:59 1014 29.94 843 24.89 9 48.2 59 1.4 34.5 9.4 0.37
13:00 1014 29.94 843 24.89 8.9 48.1 59 1.3 34.3 9.28 0.365
13:01 1014 29.94 843 24.89 8.8 47.8 60 1.6 34.8 9.08 0.357
13:02 1014 29.94 843 24.89 8.8 47.8 61 1.7 35.1 9.17 0.361
13:03 1014 29.94 843 24.89 9 48.1 61 1.8 35.3 9.34 0.368
13:04 1014 29.94 843 24.89 9.2 48.5 58 1.4 34.6 9.6 0.378
13:05 1014 29.94 843 24.89 9.2 48.6 63 2.5 36.5 9.58 0.377
13:06 1014 29.94 843 24.89 9.1 48.4 61 2.1 35.8 9.54 0.376
13:07 1014 29.94 843 24.89 9 48.2 65 2.7 36.9 9.41 0.37
13:08 1014 29.94 843 24.89 9.2 48.5 60 2 35.5 9.59 0.378
13:09 1014 29.94 843 24.89 9.2 48.6 60 1.9 35.4 9.55 0.376
13:10 1014 29.94 843 24.89 9.3 48.7 60 1.8 35.3 9.69 0.381
13:11 1014 29.94 843 24.89 9.3 48.7 58 1.4 34.5 9.67 0.381
13:12 1014 29.94 843 24.89 9.1 48.4 60 1.8 35.3 9.42 0.371
13:13 1014 29.94 843 24.89 9.1 48.3 62 2.1 35.8 9.47 0.373
13:14 1014 29.94 843 24.89 9.2 48.5 59 1.7 35.1 9.55 0.376
13:15 1014 29.94 843 24.89 9.1 48.3 61 2 35.5 9.43 0.371
13:16 1014 29.94 843 24.89 9.1 48.3 60 1.8 35.2 9.43 0.371
13:17 1014 29.94 843 24.89 8.9 48 65 2.6 36.8 9.36 0.369
13:18 1014 29.94 843 24.89 9.2 48.5 60 1.8 35.2 9.62 0.379
13:19 1014 29.94 843 24.89 9.1 48.4 62 2.2 35.9 9.46 0.372
13:20 1014 29.94 843 24.89 8.9 48 59 1.4 34.5 9.26 0.365
13:21 1014 29.94 843 24.89 8.6 47.6 61 1.5 34.7 8.93 0.352
13:22 1014 29.94 843 24.89 8.6 47.4 64 2.1 35.8 8.97 0.353
13:23 1014 29.94 843 24.89 8.7 47.6 63 2 35.6 9.09 0.358
13:24 1014 29.94 843 24.89 8.6 47.6 60 1.2 34.2 9.06 0.357
13:25 1014 29.94 843 24.89 8.7 47.6 61 1.6 35 9.05 0.356
13:26 1014 29.94 843 24.89 8.7 47.6 65 2.5 36.4 9.06 0.357
13:27 1014 29.94 843 24.89 8.7 47.6 63 1.9 35.5 9.07 0.357
13:28 1014 29.94 843 24.89 8.7 47.6 64 2.2 36 9.08 0.357
13:29 1014 29.94 843 24.89 8.8 47.8 60 1.5 34.8 9.18 0.361
13:30 1014 29.94 843 24.89 8.8 47.8 61 1.7 35.1 9.2 0.362
13:31 1014 29.94 843 24.89 8.8 47.8 63 2 35.7 9.1 0.358
13:32 1014 29.94 843 24.89 8.8 47.8 61 1.8 35.2 9.18 0.361
13:33 1014 29.94 843 24.89 8.7 47.7 59 1.1 34 9.05 0.356
13:34 1014 29.94 843 24.89 8.6 47.5 59 1.2 34.2 9.02 0.355
13:35 1013 29.91 843 24.89 8.5 47.4 60 1.2 34.2 8.93 0.352
13:36 1013 29.91 843 24.89 8.5 47.3 59 0.9 33.7 8.9 0.35
13:37 1014 29.94 843 24.89 8.6 47.4 59 1.1 34 8.96 0.353
13:38 1014 29.94 843 24.89 8.6 47.5 59 1.2 34.1 8.98 0.354
13:39 1014 29.94 843 24.89 8.6 47.5 60 1.2 34.2 8.98 0.354
13:40 1014 29.94 843 24.89 8.7 47.6 60 1.3 34.4 8.99 0.354
13:41 1014 29.94 843 24.89 8.7 47.6 60 1.3 34.4 9.04 0.356
13:42 1014 29.94 843 24.89 8.7 47.6 61 1.7 35 9.01 0.355
13:43 1013 29.91 843 24.89 8.7 47.7 62 1.8 35.3 9.11 0.359
13:44 1014 29.94 843 24.89 9 48.1 60 1.6 34.9 9.39 0.37
13:45 1014 29.94 843 24.89 8.9 48 60 1.5 34.7 9.22 0.363
13:46 1014 29.94 843 24.89 9 48.2 59 1.5 34.7 9.47 0.373
13:47 1014 29.94 843 24.89 9.1 48.4 57 1.2 34.1 9.48 0.373
13:48 1014 29.94 843 24.89 9 48.2 63 2.3 36.2 9.38 0.369
13:49 1014 29.94 843 24.89 9.2 48.6 59 1.6 34.8 9.64 0.38
13:50 1014 29.94 843 24.89 9.1 48.4 59 1.6 35 9.46 0.372
13:51 1014 29.94 843 24.89 9 48.3 58 1.3 34.4 9.41 0.37
13:52 1014 29.94 843 24.89 8.9 48.1 60 1.6 34.8 9.3 0.366
13:53 1013 29.91 843 24.89 8.9 48.1 59 1.3 34.3 9.32 0.367
13:54 1013 29.91 843 24.89 9 48.3 60 1.8 35.3 9.45 0.372
13:55 1013 29.91 843 24.89 9.1 48.4 57 1 33.9 9.5 0.374
13:56 1013 29.91 843 24.89 9 48.3 59 1.4 34.5 9.42 0.371
13:57 1013 29.91 843 24.89 9 48.2 60 1.7 35.1 9.38 0.369
13:58 1013 29.91 842 24.86 8.9 48.1 58 1.3 34.3 9.32 0.367
13:59 1013 29.91 842 24.86 9 48.2 57 1 33.8 9.42 0.371
14:00 1013 29.91 843 24.89 9.1 48.4 60 1.9 35.4 9.53 0.375
14:01 1013 29.91 843 24.89 9.2 48.6 57 1.3 34.3 9.62 0.379
14:02 1013 29.91 842 24.86 9.2 48.5 55 0.6 33 9.58 0.377
14:03 1013 29.91 843 24.89 9.2 48.5 59 1.5 34.8 9.55 0.376
14:04 1013 29.91 843 24.89 9.4 48.9 58 1.5 34.7 9.88 0.389
14:05 1013 29.91 843 24.89 9.6 49.3 56 1.3 34.4 10.05 0.396
14:06 1013 29.91 842 24.86 9.7 49.4 56 1.4 34.5 10.03 0.395
14:07 1013 29.91 843 24.89 9.6 49.4 53 0.6 33.1 10.01 0.394
14:08 1013 29.91 843 24.89 9.7 49.4 54 0.7 33.3 9.99 0.393
14:09 1013 29.91 842 24.86 9.6 49.3 54 0.7 33.2 9.93 0.391
14:10 1013 29.91 843 24.89 9.6 49.3 52 0.3 32.6 9.96 0.392
14:11 1013 29.91 843 24.89 9.5 49.1 58 1.6 34.9 9.88 0.389
14:12 1013 29.91 842 24.86 9.7 49.5 54 0.9 33.6 10.16 0.4
14:13 1013 29.91 842 24.86 9.8 49.6 52 0.4 32.7 10.2 0.402
14:14 1013 29.91 842 24.86 9.8 49.6 55 1.2 34.1 10.19 0.401
14:15 1013 29.91 842 24.86 9.8 49.7 53 0.8 33.4 10.22 0.402
14:16 1013 29.91 842 24.86 9.8 49.6 55 1.2 34.1 10.19 0.401
14:17 1013 29.91 843 24.89 9.9 49.7 54 0.9 33.7 10.36 0.408
14:18 1013 29.91 842 24.86 9.9 49.9 56 1.6 34.8 10.39 0.409
14:19 1013 29.91 842 24.86 10.1 50.1 52 0.7 33.2 10.51 0.414
14:20 1013 29.91 843 24.89 10.1 50.2 52 0.8 33.4 10.5 0.413
14:21 1013 29.91 843 24.89 10.1 50.2 51 0.5 33 10.51 0.414
14:22 1013 29.91 843 24.89 10.1 50.1 55 1.4 34.5 10.44 0.411
14:23 1013 29.91 843 24.89 10 50.1 53 0.8 33.5 10.38 0.409
14:24 1013 29.91 843 24.89 10 50 55 1.3 34.4 10.42 0.41
14:25 1013 29.91 843 24.89 10.2 50.4 55 1.6 35 10.63 0.419
14:26 1013 29.91 842 24.86 10.4 50.6 55 1.8 35.3 10.8 0.425
14:27 1013 29.91 843 24.89 10.4 50.7 51 0.8 33.5 10.79 0.425
14:28 1013 29.91 842 24.86 10.3 50.6 53 1.1 34 10.72 0.422
14:29 1013 29.91 843 24.89 10.2 50.4 53 1.1 34 10.62 0.418
14:30 1013 29.91 842 24.86 10.1 50.3 53 1 33.8 10.61 0.418
14:31 1013 29.91 843 24.89 10.1 50.2 54 1.2 34.1 10.53 0.415
14:32 1013 29.91 842 24.86 10.3 50.5 52 0.9 33.7 10.73 0.422
14:33 1013 29.91 842 24.86 10.3 50.6 53 1.1 34.1 10.73 0.422
14:34 1013 29.91 842 24.86 10.3 50.5 53 1.2 34.1 10.64 0.419
14:35 1013 29.91 843 24.89 10.1 50.3 50 0.1 32.2 10.55 0.415
14:36 1013 29.91 843 24.89 10.1 50.1 51 0.5 32.9 10.47 0.412
14:37 1013 29.91 843 24.89 10 49.9 52 0.5 32.9 10.36 0.408
14:38 1013 29.91 843 24.89 9.9 49.8 56 1.5 34.7 10.28 0.405
14:39 1013 29.91 843 24.89 10 50 52 0.6 33.1 10.44 0.411
14:40 1013 29.91 843 24.89 10 50 54 1.1 33.9 10.41 0.41
14:41 1013 29.91 843 24.89 10.1 50.2 53 1 33.8 10.53 0.415
14:42 1013 29.91 842 24.86 10.2 50.4 52 0.9 33.6 10.65 0.419
14:43 1013 29.91 842 24.86 10.1 50.1 52 0.8 33.4 10.42 0.41
14:44 1013 29.91 842 24.86 10 50 53 1 33.8 10.38 0.409
14:45 1013 29.91 843 24.89 10 50.1 53 1 33.8 10.5 0.413
14:46 1013 29.91 842 24.86 10.2 50.3 54 1.3 34.4 10.66 0.42
14:47 1013 29.91 842 24.86 10.2 50.3 54 1.4 34.6 10.65 0.419
14:48 1013 29.91 842 24.86 10.1 50.2 52 0.8 33.5 10.56 0.416
14:49 1013 29.91 842 24.86 10 50.1 55 1.6 34.8 10.42 0.41
14:50 1013 29.91 842 24.86 10 50.1 52 0.8 33.4 10.49 0.413
14:51 1013 29.91 842 24.86 10.1 50.2 52 0.7 33.3 10.57 0.416
14:52 1013 29.91 842 24.86 10.1 50.3 52 0.8 33.5 10.5 0.413
14:53 1013 29.91 842 24.86 10.1 50.1 53 1.1 33.9 10.56 0.416
14:54 1013 29.91 842 24.86 10.2 50.4 53 1 33.8 10.71 0.422
14:55 1013 29.91 842 24.86 10.3 50.6 53 1.2 34.2 10.8 0.425
14:56 1013 29.91 842 24.86 10.3 50.6 53 1.3 34.3 10.73 0.422
14:57 1013 29.91 842 24.86 10.3 50.6 52 0.9 33.7 10.81 0.426
14:58 1013 29.91 842 24.86 10.5 50.8 55 1.9 35.3 10.88 0.428
14:59 1013 29.91 842 24.86 10.6 51.2 51 1 33.7 11.11 0.437
15:00 1013 29.91 842 24.86 10.7 51.3 51 1 33.8 11.19 0.441
15:01 1013 29.91 842 24.86 10.7 51.2 54 1.8 35.2 11 0.433
15:02 1013 29.91 842 24.86 10.7 51.2 53 1.6 34.9 11.14 0.439
15:03 1013 29.91 842 24.86 10.6 51.1 53 1.4 34.6 10.98 0.432
15:04 1013 29.91 842 24.86 10.4 50.7 53 1.3 34.4 10.84 0.427
15:05 1013 29.91 842 24.86 10.4 50.8 53 1.3 34.3 10.86 0.428
15:06 1013 29.91 842 24.86 10.3 50.5 56 1.9 35.4 10.64 0.419
15:07 1013 29.91 842 24.86 10.3 50.5 55 1.5 34.8 10.68 0.42
15:08 1013 29.91 842 24.86 10.3 50.5 54 1.5 34.7 10.7 0.421
15:09 1013 29.91 842 24.86 10.4 50.7 53 1.3 34.4 10.79 0.425
15:10 1013 29.91 842 24.86 10.3 50.6 53 1.1 34 10.73 0.422
15:11 1013 29.91 842 24.86 10.2 50.3 53 1.1 34 10.55 0.415
15:12 1013 29.91 842 24.86 10.2 50.3 51 0.6 33 10.56 0.416
15:13 1013 29.91 842 24.86 10.2 50.3 53 1 33.7 10.5 0.413
15:14 1013 29.91 842 24.86 10.2 50.3 53 1 33.7 10.56 0.416
15:15 1013 29.91 842 24.86 10.3 50.5 53 1.2 34.2 10.64 0.419
15:16 1013 29.91 842 24.86 10.3 50.6 53 1.1 33.9 10.7 0.421
15:17 1013 29.91 842 24.86 10.3 50.5 55 1.6 34.9 10.59 0.417
15:18 1013 29.91 842 24.86 10.1 50.2 52 0.8 33.4 10.43 0.411
15:19 1013 29.91 842 24.86 10 50 56 1.7 35 10.39 0.409
15:20 1013 29.91 842 24.86 10 50 52 0.6 33 10.42 0.41
15:21 1013 29.91 842 24.86 9.9 49.8 53 0.8 33.5 10.3 0.406
15:22 1013 29.91 842 24.86 9.7 49.5 53 0.7 33.3 10.05 0.396
15:23 1013 29.91 842 24.86 9.7 49.4 58 1.8 35.2 10.02 0.394
15:24 1013 29.91 842 24.86 9.9 49.9 51 0.2 32.4 10.4 0.409
15:25 1013 29.91 842 24.86 10.1 50.1 58 2.2 35.9 10.49 0.413
15:26 1013 29.91 842 24.86 10.2 50.4 51 0.7 33.3 10.69 0.421
15:27 1013 29.91 842 24.86 10.2 50.3 53 1.2 34.1 10.53 0.415
15:28 1013 29.91 842 24.86 10.1 50.1 54 1.2 34.2 10.51 0.414
15:29 1013 29.91 842 24.86 10 50 53 1 33.8 10.4 0.409
15:30 1013 29.91 842 24.86 10.1 50.1 57 1.9 35.5 10.52 0.414
15:31 1013 29.91 842 24.86 10.4 50.6 53 1.2 34.2 10.77 0.424
15:32 1013 29.91 842 24.86 10.3 50.6 56 1.9 35.5 10.7 0.421
15:33 1013 29.91 842 24.86 10.4 50.6 52 0.9 33.6 10.78 0.424
15:34 1013 29.91 842 24.86 10.3 50.5 51 0.7 33.3 10.58 0.417
15:35 1013 29.91 842 24.86 10 50.1 53 1 33.8 10.43 0.411
15:36 1013 29.91 842 24.86 9.9 49.9 53 0.8 33.5 10.33 0.407
15:37 1013 29.91 842 24.86 9.8 49.6 54 1 33.8 10.21 0.402
15:38 1013 29.91 842 24.86 9.9 49.7 55 1.2 34.1 10.32 0.406
15:39 1013 29.91 842 24.86 10 49.9 55 1.3 34.3 10.45 0.411
15:40 1013 29.91 842 24.86 10 50 56 1.7 35.1 10.48 0.413
15:41 1013 29.91 842 24.86 10.2 50.3 53 1 33.8 10.7 0.421
15:42 1013 29.91 842 24.86 10.1 50.1 52 0.7 33.3 10.49 0.413
15:43 1013 29.91 842 24.86 9.9 49.8 52 0.6 33.1 10.27 0.404
15:44 1013 29.91 842 24.86 9.7 49.5 53 0.8 33.4 10.13 0.399
15:45 1013 29.91 842 24.86 9.7 49.5 55 1.1 33.9 10.15 0.4
15:46 1013 29.91 842 24.86 9.8 49.6 52 0.5 32.9 10.15 0.4
15:47 1013 29.91 842 24.86 9.6 49.3 55 1.2 34.1 10.02 0.394
15:48 1013 29.91 842 24.86 9.7 49.5 52 0.3 32.6 10.19 0.401
15:49 1013 29.91 842 24.86 9.8 49.6 51 0.2 32.4 10.19 0.401
15:50 1013 29.91 842 24.86 9.7 49.5 53 0.5 33 10.16 0.4
15:51 1013 29.91 842 24.86 9.8 49.6 53 0.6 33.1 10.21 0.402
15:52 1013 29.91 842 24.86 9.7 49.5 52 0.5 32.9 10.15 0.4
15:53 1013 29.91 842 24.86 9.7 49.4 54 0.8 33.4 10.04 0.395
15:54 1013 29.91 842 24.86 9.7 49.4 49 -0.4 31.2 10.08 0.397
15:55 1013 29.91 842 24.86 9.5 49.1 52 0.2 32.3 9.88 0.389
15:56 1013 29.91 842 24.86 9.5 49.1 52 0.1 32.1 9.85 0.388
15:57 1013 29.91 842 24.86 9.6 49.2 52 0.3 32.6 9.92 0.391
15:58 1013 29.91 842 24.86 9.6 49.3 55 1 33.7 10.06 0.396
15:59 1013 29.91 842 24.86 9.8 49.6 51 0.2 32.4 10.2 0.402
16:00 1013 29.91 842 24.86 9.9 49.8 50 -0.1 31.8 10.37 0.408
16:01 1013 29.91 842 24.86 9.9 49.8 51 0.2 32.3 10.26 0.404
16:02 1013 29.91 842 24.86 9.8 49.7 51 0.2 32.4 10.23 0.403
16:03 1013 29.91 842 24.86 9.7 49.5 51 -0 31.9 10.05 0.396
16:04 1013 29.91 842 24.86 9.6 49.3 56 1.2 34.1 9.99 0.393
16:05 1013 29.91 842 24.86 9.8 49.6 51 0.2 32.4 10.22 0.402
16:06 1013 29.91 842 24.86 9.9 49.8 50 0 32.1 10.28 0.405
16:07 1013 29.91 842 24.86 9.7 49.5 54 1 33.8 10.1 0.398
16:08 1013 29.91 842 24.86 9.8 49.6 52 0.3 32.6 10.17 0.4
16:09 1013 29.91 842 24.86 9.7 49.5 57 1.5 34.8 10.08 0.397
16:10 1013 29.91 842 24.86 9.7 49.5 53 0.5 32.9 10.13 0.399
16:11 1013 29.91 842 24.86 9.8 49.6 53 0.6 33.2 10.2 0.402
16:12 1013 29.91 842 24.86 9.9 49.8 52 0.6 33.1 10.31 0.406
16:13 1013 29.91 842 24.86 9.8 49.6 55 1.2 34.1 10.2 0.402
16:14 1013 29.91 842 24.86 9.7 49.5 52 0.3 32.6 10.08 0.397
16:15 1013 29.91 842 24.86 9.5 49.2 53 0.3 32.6 9.84 0.387
16:16 1013 29.91 842 24.86 9.4 49 53 0.5 32.8 9.79 0.385
16:17 1013 29.91 842 24.86 9.5 49 52 0.1 32.1 9.83 0.387
16:18 1013 29.91 842 24.86 9.3 48.8 54 0.4 32.8 9.71 0.382
16:19 1013 29.91 842 24.86 9.3 48.7 55 0.7 33.2 9.7 0.382
16:20 1013 29.91 842 24.86 9.3 48.7 53 0.2 32.3 9.76 0.384
16:21 1013 29.91 842 24.86 9.2 48.6 53 0.2 32.4 9.66 0.38
16:22 1013 29.91 842 24.86 9.1 48.4 55 0.5 32.9 9.52 0.375
16:23 1013 29.91 842 24.86 9.1 48.4 54 0.2 32.4 9.58 0.377
16:24 1013 29.91 842 24.86 9.1 48.3 54 0.3 32.5 9.46 0.372
16:25 1013 29.91 842 24.86 9 48.1 53 0 32 9.33 0.367
16:26 1013 29.91 842 24.86 8.9 48 55 0.3 32.5 9.29 0.366
16:27 1013 29.91 842 24.86 8.9 47.9 55 0.3 32.5 9.28 0.365
16:28 1013 29.91 842 24.86 8.9 47.9 55 0.4 32.8 9.2 0.362
16:29 1013 29.91 842 24.86 8.8 47.9 54 0.1 32.2 9.17 0.361
16:30 1013 29.91 842 24.86 8.8 47.8 55 0.1 32.3 9.17 0.361
16:31 1013 29.91 842 24.86 8.8 47.8 56 0.5 32.9 9.2 0.362
16:32 1013 29.91 842 24.86 8.8 47.8 57 0.7 33.3 9.16 0.361
16:33 1013 29.91 842 24.86 8.8 47.8 54 0 32.1 9.18 0.361
16:34 1013 29.91 842 24.86 8.8 47.9 55 0.2 32.4 9.17 0.361
16:35 1013 29.91 842 24.86 8.8 47.8 56 0.6 33 9.21 0.363
16:36 1013 29.91 842 24.86 8.8 47.8 55 0.2 32.3 9.18 0.361
16:37 1013 29.91 842 24.86 8.8 47.8 55 0.3 32.5 9.15 0.36
16:38 1013 29.91 842 24.86 8.8 47.8 58 0.9 33.7 9.21 0.363
16:39 1013 29.91 842 24.86 8.8 47.8 54 -0 32 9.23 0.363
16:40 1013 29.91 842 24.86 8.8 47.8 54 -0 32 9.18 0.361
16:41 1013 29.91 842 24.86 8.8 47.8 54 0 32.1 9.21 0.363
16:42 1013 29.91 842 24.86 8.9 47.9 55 0.2 32.4 9.23 0.363
16:43 1013 29.91 842 24.86 8.9 48.1 54 0.3 32.5 9.3 0.366
16:44 1013 29.91 842 24.86 8.9 48 55 0.5 32.9 9.27 0.365
16:45 1013 29.91 842 24.86 8.9 47.9 54 0.1 32.1 9.25 0.364
16:46 1013 29.91 842 24.86 8.8 47.9 53 -0.1 31.8 9.21 0.363
16:47 1013 29.91 842 24.86 8.8 47.9 53 -0.2 31.7 9.21 0.363
16:48 1013 29.91 842 24.86 8.8 47.8 55 0.4 32.6 9.2 0.362
16:49 1013 29.91 842 24.86 8.9 47.9 54 0.1 32.2 9.22 0.363
16:50 1013 29.91 842 24.86 8.9 48 55 0.3 32.5 9.29 0.366
16:51 1013 29.91 842 24.86 8.9 48 54 0 32 9.31 0.367
16:52 1013 29.91 842 24.86 8.9 47.9 55 0.4 32.7 9.25 0.364
16:53 1013 29.91 842 24.86 8.9 47.9 56 0.5 32.9 9.23 0.363
16:54 1013 29.91 842 24.86 8.9 47.9 55 0.5 32.8 9.27 0.365
16:55 1013 29.91 842 24.86 8.9 48 55 0.5 32.9 9.26 0.365
16:56 1013 29.91 842 24.86 8.9 47.9 55 0.2 32.4 9.27 0.365
16:57 1013 29.91 842 24.86 8.9 48 52 -0.4 31.4 9.28 0.365
16:58 1013 29.91 842 24.86 8.9 48 52 -0.3 31.4 9.26 0.365
16:59 1013 29.91 842 24.86 8.9 48 52 -0.4 31.3 9.24 0.364
17:00 1013 29.91 842 24.86 8.9 48 54 0.2 32.4 9.23 0.363
17:01 1013 29.91 842 24.86 8.8 47.9 52 -0.5 31.2 9.24 0.364
17:02 1013 29.91 842 24.86 8.9 47.9 52 -0.4 31.3 9.25 0.364
17:03 1013 29.91 842 24.86 8.9 48 52 -0.5 31.1 9.26 0.365
17:04 1013 29.91 842 24.86 8.9 48 52 -0.3 31.5 9.27 0.365
17:05 1013 29.91 843 24.89 8.9 48 54 0.2 32.3 9.27 0.365
17:06 1013 29.91 842 24.86 8.9 48 53 0 32 9.31 0.367
17:07 1013 29.91 842 24.86 8.9 48 53 -0.1 31.9 9.28 0.365
17:08 1013 29.91 843 24.89 8.9 48 54 0.1 32.1 9.29 0.366
17:09 1013 29.91 843 24.89 9 48.1 52 -0.2 31.6 9.34 0.368
17:10 1013 29.91 843 24.89 8.9 48.1 52 -0.5 31.2 9.33 0.367
17:11 1013 29.91 842 24.86 8.9 48 52 -0.5 31.2 9.32 0.367
17:12 1013 29.91 842 24.86 8.9 47.9 51 -0.7 30.7 9.25 0.364
17:13 1013 29.91 842 24.86 8.9 47.9 53 -0.2 31.7 9.21 0.363
17:14 1013 29.91 842 24.86 8.8 47.9 52 -0.4 31.2 9.23 0.363
17:15 1013 29.91 842 24.86 8.9 47.9 54 -0 32 9.26 0.365
17:16 1013 29.91 842 24.86 8.9 47.9 51 -0.7 30.7 9.25 0.364
17:17 1013 29.91 842 24.86 8.8 47.8 52 -0.5 31.2 9.19 0.362
17:18 1013 29.91 842 24.86 8.8 47.8 53 -0.3 31.5 9.19 0.362
17:19 1013 29.91 842 24.86 8.8 47.8 54 0 32.1 9.19 0.362
17:20 1013 29.91 842 24.86 8.8 47.9 53 -0.1 31.9 9.21 0.363
17:21 1013 29.91 842 24.86 8.9 47.9 52 -0.3 31.5 9.28 0.365
17:22 1013 29.91 842 24.86 8.9 48 52 -0.4 31.2 9.3 0.366
17:23 1013 29.91 842 24.86 8.9 48 52 -0.5 31.2 9.26 0.365
17:24 1013 29.91 842 24.86 8.9 48 52 -0.5 31.1 9.31 0.367
17:25 1013 29.91 842 24.86 8.9 48.1 53 -0.1 31.8 9.28 0.365
17:26 1013 29.91 842 24.86 8.9 47.9 51 -0.7 30.8 9.26 0.365
17:27 1013 29.91 842 24.86 8.8 47.9 54 0 32 9.2 0.362
17:28 1013 29.91 842 24.86 8.8 47.9 53 -0.3 31.5 9.21 0.363
17:29 1013 29.91 842 24.86 8.8 47.9 53 -0.3 31.5 9.21 0.363
17:30 1013 29.91 842 24.86 8.8 47.9 54 -0 32 9.26 0.365
17:31 1013 29.91 842 24.86 8.9 48 54 0 32.1 9.29 0.366
17:32 1013 29.91 843 24.89 8.9 48.1 54 0 32.1 9.33 0.367
17:33 1013 29.91 842 24.86 9 48.1 51 -0.7 30.8 9.38 0.369
17:34 1013 29.91 843 24.89 9 48.2 52 -0.4 31.3 9.38 0.369
17:35 1013 29.91 842 24.86 9 48.2 50 -0.8 30.5 9.36 0.369
17:36 1013 29.91 842 24.86 8.9 48.1 51 -0.6 30.9 9.33 0.367
17:37 1013 29.91 842 24.86 8.9 48 48 -1.4 29.5 9.24 0.364
17:38 1013 29.91 843 24.89 8.8 47.9 50 -0.9 30.4 9.22 0.363
17:39 1013 29.91 842 24.86 8.8 47.9 49 -1.3 29.6 9.21 0.363
17:40 1013 29.91 843 24.89 8.8 47.9 52 -0.5 31.1 9.22 0.363
17:41 1013 29.91 843 24.89 8.8 47.9 51 -0.6 30.9 9.2 0.362
17:42 1013 29.91 843 24.89 8.8 47.9 50 -0.9 30.4 9.21 0.363
17:43 1013 29.91 842 24.86 8.8 47.9 51 -0.7 30.8 9.21 0.363
17:44 1013 29.91 842 24.86 8.8 47.8 51 -0.7 30.8 9.17 0.361
17:45 1013 29.91 842 24.86 8.7 47.7 51 -0.9 30.4 9.15 0.36
17:46 1013 29.91 842 24.86 8.8 47.8 51 -0.6 30.8 9.15 0.36
17:47 1013 29.91 843 24.89 8.7 47.7 51 -0.7 30.7 9.15 0.36
17:48 1013 29.91 843 24.89 8.8 47.8 51 -0.9 30.5 9.17 0.361
17:49 1013 29.91 842 24.86 8.8 47.9 51 -0.9 30.4 9.17 0.361
17:50 1013 29.91 842 24.86 8.7 47.7 50 -1 30.2 9.13 0.359
17:51 1013 29.91 842 24.86 8.7 47.6 50 -1.1 29.9 9.1 0.358
17:52 1013 29.91 842 24.86 8.6 47.5 51 -0.8 30.5 9.05 0.356
17:53 1013 29.91 842 24.86 8.6 47.5 52 -0.7 30.7 9 0.354
17:54 1013 29.91 842 24.86 8.6 47.5 52 -0.7 30.8 8.97 0.353
17:55 1013 29.91 842 24.86 8.5 47.4 53 -0.5 31.1 8.94 0.352
17:56 1013 29.91 842 24.86 8.5 47.4 53 -0.3 31.4 8.93 0.352
17:57 1013 29.91 843 24.89 8.6 47.4 53 -0.4 31.3 8.95 0.352
17:58 1013 29.91 842 24.86 8.5 47.3 54 -0.3 31.4 8.93 0.352
17:59 1013 29.91 842 24.86 8.5 47.3 53 -0.6 31 8.87 0.349
18:00 1013 29.91 843 24.89 8.5 47.3 52 -0.9 30.4 8.88 0.35
18:01 1013 29.91 842 24.86 8.5 47.2 52 -0.8 30.6 8.85 0.348
18:02 1013 29.91 842 24.86 8.4 47.2 54 -0.3 31.5 8.82 0.347
18:03 1013 29.91 843 24.89 8.4 47.1 53 -0.5 31.1 8.78 0.346
18:04 1013 29.91 843 24.89 8.3 47 54 -0.3 31.4 8.73 0.344
18:05 1013 29.91 843 24.89 8.3 46.9 53 -0.8 30.6 8.69 0.342
18:06 1013 29.91 843 24.89 8.3 46.9 54 -0.4 31.2 8.69 0.342
18:07 1013 29.91 843 24.89 8.3 47 53 -0.7 30.8 8.68 0.342
18:08 1013 29.91 843 24.89 8.3 46.9 54 -0.6 31 8.68 0.342
18:09 1013 29.91 843 24.89 8.3 46.9 54 -0.5 31.2 8.67 0.341
18:10 1013 29.91 843 24.89 8.3 46.9 53 -0.6 30.9 8.68 0.342
18:11 1013 29.91 843 24.89 8.3 46.9 53 -0.7 30.8 8.69 0.342
18:12 1013 29.91 843 24.89 8.3 46.9 53 -0.7 30.7 8.66 0.341
18:13 1013 29.91 843 24.89 8.3 46.9 55 -0.2 31.7 8.64 0.34
18:14 1013 29.91 843 24.89 8.2 46.8 56 -0.1 31.8 8.59 0.338
18:15 1013 29.91 843 24.89 8.2 46.7 54 -0.5 31.1 8.58 0.338
18:16 1013 29.91 843 24.89 8.2 46.7 54 -0.5 31 8.55 0.337
18:17 1013 29.91 843 24.89 8.2 46.7 55 -0.4 31.2 8.53 0.336
18:18 1013 29.91 843 24.89 8.1 46.6 56 -0.1 31.7 8.52 0.335
18:19 1013 29.91 843 24.89 8.1 46.6 55 -0.4 31.3 8.5 0.335
18:20 1013 29.91 843 24.89 8.1 46.6 54 -0.5 31 8.52 0.335
18:21 1013 29.91 843 24.89 8.1 46.6 54 -0.5 31.1 8.5 0.335
18:22 1013 29.91 843 24.89 8.1 46.6 55 -0.3 31.5 8.5 0.335
18:23 1013 29.91 843 24.89 8.1 46.5 56 -0.3 31.5 8.48 0.334
18:24 1013 29.91 843 24.89 8.1 46.5 55 -0.5 31.2 8.48 0.334
18:25 1013 29.91 843 24.89 8.1 46.6 56 -0.2 31.6 8.48 0.334
18:26 1013 29.91 843 24.89 8.1 46.5 56 -0.1 31.9 8.43 0.332
18:27 1013 29.91 843 24.89 8 46.5 55 -0.3 31.4 8.45 0.333
18:28 1013 29.91 843 24.89 8.1 46.5 56 -0.1 31.8 8.45 0.333
18:29 1013 29.91 843 24.89 8.1 46.5 56 -0 31.9 8.42 0.331
18:30 1013 29.91 843 24.89 8 46.5 56 -0.2 31.6 8.43 0.332
18:31 1013 29.91 843 24.89 8.1 46.5 57 0 32.1 8.46 0.333
18:32 1013 29.91 843 24.89 8 46.5 57 0.1 32.2 8.42 0.331
18:33 1013 29.91 843 24.89 8 46.5 56 -0.3 31.5 8.46 0.333
18:34 1013 29.91 843 24.89 8 46.5 56 -0.2 31.7 8.45 0.333
18:35 1013 29.91 843 24.89 8.1 46.5 57 0.2 32.3 8.46 0.333
18:36 1013 29.91 843 24.89 8 46.5 57 -0 32 8.44 0.332
18:37 1013 29.91 843 24.89 8 46.5 57 0 32 8.41 0.331
18:38 1013 29.91 843 24.89 8 46.4 58 0.2 32.4 8.4 0.331
18:39 1013 29.91 843 24.89 8 46.4 57 0 32 8.39 0.33
18:40 1013 29.91 843 24.89 8 46.4 58 0.4 32.6 8.36 0.329
18:41 1013 29.91 843 24.89 8 46.3 58 0.3 32.6 8.38 0.33
18:42 1013 29.91 843 24.89 7.9 46.3 58 0.1 32.2 8.33 0.328
18:43 1013 29.91 843 24.89 7.9 46.3 58 0.2 32.4 8.3 0.327
18:44 1013 29.91 843 24.89 7.9 46.2 58 0.2 32.4 8.29 0.326
18:45 1013 29.91 843 24.89 7.9 46.2 59 0.3 32.5 8.29 0.326
18:46 1013 29.91 843 24.89 7.9 46.1 58 0.2 32.4 8.27 0.326
18:47 1013 29.91 843 24.89 7.9 46.1 59 0.4 32.7 8.24 0.324
18:48 1013 29.91 843 24.89 7.8 46.1 59 0.4 32.7 8.21 0.323
18:49 1013 29.91 843 24.89 7.8 46 60 0.6 33.1 8.19 0.322
18:50 1013 29.91 843 24.89 7.8 46 59 0.2 32.4 8.19 0.322
18:51 1013 29.91 843 24.89 7.8 46 59 0.4 32.6 8.19 0.322
18:52 1013 29.91 843 24.89 7.8 46 59 0.2 32.4 8.17 0.322
18:53 1013 29.91 843 24.89 7.7 45.9 59 0.2 32.4 8.19 0.322
18:54 1013 29.91 843 24.89 7.8 46 59 0.3 32.6 8.19 0.322
18:55 1013 29.91 843 24.89 7.8 46 59 0.3 32.6 8.17 0.322
18:56 1013 29.91 843 24.89 7.8 46 59 0.3 32.6 8.13 0.32
18:57 1013 29.91 843 24.89 7.7 45.8 61 0.5 33 8.08 0.318
18:58 1013 29.91 843 24.89 7.6 45.7 61 0.6 33.1 8.03 0.316
18:59 1013 29.91 843 24.89 7.6 45.7 61 0.5 32.9 8.01 0.315
19:00 1013 29.91 843 24.89 7.6 45.7 61 0.6 33 8.01 0.315
19:01 1013 29.91 843 24.89 7.6 45.7 61 0.5 32.9 7.99 0.315
19:02 1013 29.91 843 24.89 7.6 45.6 60 0.3 32.6 7.98 0.314
19:03 1013 29.91 843 24.89 7.6 45.7 60 0.4 32.8 7.97 0.314
19:04 1013 29.91 843 24.89 7.6 45.7 60 0.4 32.7 7.99 0.315
19:05 1013 29.91 843 24.89 7.6 45.7 61 0.7 33.2 7.97 0.314
19:06 1014 29.94 843 24.89 7.6 45.7 61 0.6 33.1 7.98 0.314
19:07 1013 29.91 843 24.89 7.6 45.6 61 0.5 32.9 7.96 0.313
19:08 1013 29.91 843 24.89 7.5 45.6 60 0.3 32.6 8 0.315
19:09 1014 29.94 843 24.89 7.6 45.6 60 0.3 32.6 7.96 0.313
19:10 1014 29.94 843 24.89 7.5 45.6 60 0.3 32.6 7.93 0.312
19:11 1014 29.94 843 24.89 7.5 45.5 60 0.3 32.6 7.89 0.311
19:12 1014 29.94 843 24.89 7.5 45.5 61 0.5 32.9 7.87 0.31
19:13 1014 29.94 843 24.89 7.5 45.4 62 0.6 33.1 7.92 0.312
19:14 1014 29.94 843 24.89 7.5 45.4 61 0.5 32.8 7.88 0.31
19:15 1014 29.94 843 24.89 7.5 45.5 61 0.4 32.7 7.89 0.311
19:16 1014 29.94 843 24.89 7.5 45.5 60 0.3 32.6 7.91 0.311
19:17 1014 29.94 843 24.89 7.5 45.5 61 0.4 32.7 7.93 0.312
19:18 1014 29.94 843 24.89 7.5 45.6 60 0.4 32.6 7.94 0.313
19:19 1014 29.94 843 24.89 7.5 45.5 61 0.4 32.7 7.89 0.311
19:20 1014 29.94 843 24.89 7.5 45.5 60 0.2 32.4 7.89 0.311
19:21 1014 29.94 843 24.89 7.5 45.4 60 0.3 32.6 7.88 0.31
19:22 1014 29.94 843 24.89 7.5 45.5 58 -0.1 31.7 7.86 0.309
19:23 1014 29.94 843 24.89 7.5 45.5 59 -0.1 31.8 7.91 0.311
19:24 1014 29.94 843 24.89 7.5 45.5 59 0.1 32.2 7.88 0.31
19:25 1014 29.94 843 24.89 7.5 45.5 58 -0.2 31.6 7.85 0.309
19:26 1014 29.94 843 24.89 7.5 45.4 58 -0.2 31.6 7.86 0.309
19:27 1014 29.94 843 24.89 7.5 45.4 58 -0.2 31.6 7.85 0.309
19:28 1014 29.94 843 24.89 7.5 45.4 58 -0.2 31.7 7.88 0.31
19:29 1014 29.94 843 24.89 7.5 45.5 59 -0.1 31.9 7.87 0.31
19:30 1014 29.94 843 24.89 7.5 45.4 60 0.2 32.3 7.84 0.309
19:31 1014 29.94 843 24.89 7.4 45.3 59 -0.1 31.7 7.81 0.307
19:32 1014 29.94 843 24.89 7.4 45.3 58 -0.3 31.5 7.81 0.307
19:33 1014 29.94 843 24.89 7.4 45.4 60 0.1 32.3 7.8 0.307
19:34 1014 29.94 843 24.89 7.4 45.2 59 -0.1 31.9 7.78 0.306
19:35 1014 29.94 843 24.89 7.4 45.2 60 0.1 32.1 7.78 0.306
19:36 1014 29.94 843 24.89 7.4 45.2 60 0.1 32.1 7.76 0.306
19:37 1014 29.94 843 24.89 7.3 45.2 58 -0.5 31.1 7.73 0.304
19:38 1014 29.94 843 24.89 7.4 45.2 58 -0.4 31.3 7.79 0.307
19:39 1014 29.94 843 24.89 7.4 45.3 58 -0.2 31.6 7.76 0.306
19:40 1014 29.94 843 24.89 7.4 45.3 57 -0.5 31.1 7.79 0.307
19:41 1014 29.94 843 24.89 7.4 45.3 58 -0.4 31.2 7.79 0.307
19:42 1014 29.94 843 24.89 7.4 45.3 56 -0.8 30.6 7.78 0.306
19:43 1014 29.94 843 24.89 7.4 45.3 57 -0.7 30.8 7.78 0.306
19:44 1014 29.94 843 24.89 7.4 45.3 56 -0.8 30.6 7.79 0.307
19:45 1014 29.94 843 24.89 7.4 45.3 57 -0.5 31.1 7.77 0.306
19:46 1014 29.94 843 24.89 7.3 45.2 56 -0.8 30.5 7.75 0.305
19:47 1014 29.94 843 24.89 7.3 45.2 57 -0.6 31 7.74 0.305
19:48 1014 29.94 843 24.89 7.3 45.2 55 -1 30.2 7.74 0.305
19:49 1014 29.94 843 24.89 7.4 45.3 57 -0.7 30.8 7.73 0.304
19:50 1014 29.94 843 24.89 7.3 45.2 56 -0.7 30.7 7.73 0.304
19:51 1014 29.94 843 24.89 7.3 45.2 55 -1.1 30.1 7.71 0.304
19:52 1014 29.94 843 24.89 7.4 45.2 55 -1 30.3 7.7 0.303
19:53 1014 29.94 843 24.89 7.4 45.2 56 -0.8 30.6 7.73 0.304
19:54 1014 29.94 843 24.89 7.3 45.2 55 -1 30.2 7.69 0.303
19:55 1014 29.94 843 24.89 7.3 45.1 55 -1 30.2 7.68 0.302
19:56 1014 29.94 843 24.89 7.3 45.1 56 -1 30.2 7.68 0.302
19:57 1014 29.94 843 24.89 7.3 45.1 55 -1.1 30.1 7.68 0.302
19:58 1014 29.94 843 24.89 7.3 45.1 55 -1.2 29.8 7.68 0.302
19:59 1014 29.94 843 24.89 7.2 45 56 -1 30.2 7.68 0.302
20:00 1014 29.94 843 24.89 7.2 45 56 -1 30.2 7.63 0.3
20:01 1014 29.94 843 24.89 7.2 45 54 -1.4 29.5 7.6 0.299
20:02 1014 29.94 843 24.89 7.2 45 54 -1.3 29.6 7.62 0.3
20:03 1014 29.94 843 24.89 7.2 44.9 55 -1.2 29.9 7.62 0.3
20:04 1014 29.94 843 24.89 7.2 45 54 -1.4 29.5 7.61 0.3
20:05 1014 29.94 843 24.89 7.3 45.1 54 -1.4 29.6 7.61 0.3
20:06 1014 29.94 843 24.89 7.2 45 55 -1.2 29.8 7.62 0.3
20:07 1014 29.94 843 24.89 7.2 44.9 55 -1.2 29.8 7.6 0.299
20:08 1014 29.94 843 24.89 7.2 44.9 55 -1.2 29.8 7.6 0.299
20:09 1014 29.94 843 24.89 7.2 44.9 56 -1 30.1 7.58 0.298
20:10 1014 29.94 843 24.89 7.1 44.8 55 -1.2 29.8 7.53 0.296
20:11 1014 29.94 843 24.89 7.1 44.8 54 -1.4 29.5 7.54 0.297
20:12 1014 29.94 843 24.89 7.1 44.8 56 -1 30.2 7.52 0.296
20:13 1014 29.94 843 24.89 7.1 44.8 55 -1.2 29.8 7.47 0.294
20:14 1014 29.94 843 24.89 7 44.7 55 -1.4 29.5 7.44 0.293
20:15 1014 29.94 843 24.89 7 44.7 55 -1.4 29.5 7.44 0.293
20:16 1014 29.94 843 24.89 7.1 44.7 55 -1.4 29.4 7.45 0.293
20:17 1014 29.94 843 24.89 7.1 44.7 54 -1.6 29.1 7.48 0.294
20:18 1014 29.94 843 24.89 7.1 44.7 54 -1.6 29.1 7.47 0.294
20:19 1014 29.94 843 24.89 7.1 44.7 55 -1.4 29.4 7.42 0.292
20:20 1014 29.94 843 24.89 7 44.6 55 -1.4 29.4 7.41 0.292
20:21 1014 29.94 843 24.89 7 44.6 54 -1.7 28.9 7.36 0.29
20:22 1014 29.94 843 24.89 7 44.6 54 -1.5 29.2 7.41 0.292
20:23 1014 29.94 843 24.89 7 44.6 54 -1.6 29.1 7.4 0.291
20:24 1014 29.94 843 24.89 7 44.6 54 -1.7 29 7.36 0.29
20:25 1014 29.94 843 24.89 7 44.6 54 -1.8 28.8 7.4 0.291
20:26 1014 29.94 843 24.89 7 44.7 55 -1.5 29.4 7.43 0.293
20:27 1014 29.94 843 24.89 7 44.6 54 -1.6 29.1 7.39 0.291
20:28 1014 29.94 843 24.89 6.9 44.5 54 -1.8 28.7 7.34 0.289
20:29 1014 29.94 843 24.89 7 44.6 54 -1.6 29.1 7.36 0.29
20:30 1014 29.94 843 24.89 7 44.5 54 -1.6 29.1 7.31 0.288
20:31 1014 29.94 843 24.89 6.9 44.5 53 -1.9 28.6 7.32 0.288
20:32 1014 29.94 843 24.89 6.9 44.5 54 -1.6 29 7.35 0.289
20:33 1014 29.94 843 24.89 6.9 44.4 54 -1.7 28.9 7.25 0.285
20:34 1014 29.94 843 24.89 6.8 44.3 55 -1.7 29 7.19 0.283
20:35 1014 29.94 843 24.89 6.8 44.2 54 -1.8 28.7 7.19 0.283
20:36 1014 29.94 843 24.89 6.8 44.2 55 -1.7 28.9 7.21 0.284
20:37 1014 29.94 843 24.89 6.8 44.3 54 -1.7 28.9 7.21 0.284
20:38 1014 29.94 843 24.89 6.8 44.2 55 -1.7 28.9 7.17 0.282
20:39 1014 29.94 843 24.89 6.7 44.1 55 -1.7 28.9 7.09 0.279
20:40 1014 29.94 843 24.89 6.7 44 55 -1.8 28.7 7.09 0.279
20:41 1014 29.94 843 24.89 6.7 44 55 -1.8 28.8 7.11 0.28
20:42 1014 29.94 843 24.89 6.7 44 56 -1.6 29.1 7.05 0.278
20:43 1014 29.94 843 24.89 6.6 43.9 55 -1.8 28.7 6.986 0.275
20:44 1014 29.94 843 24.89 6.6 43.9 54 -2 28.4 7.01 0.276
20:45 1014 29.94 843 24.89 6.7 44 55 -1.8 28.8 7.04 0.277
20:46 1014 29.94 843 24.89 6.7 44 54 -1.9 28.6 7.05 0.278
20:47 1014 29.94 843 24.89 6.7 44 54 -1.9 28.5 7.04 0.277
20:48 1014 29.94 843 24.89 6.7 44.1 54 -2 28.4 7.08 0.279
20:49 1014 29.94 843 24.89 6.7 44.1 54 -2 28.3 7.12 0.28
20:50 1014 29.94 843 24.89 6.7 44.1 54 -1.9 28.5 7.14 0.281
20:51 1014 29.94 843 24.89 6.8 44.2 54 -1.9 28.6 7.16 0.282
20:52 1014 29.94 843 24.89 6.8 44.2 54 -1.8 28.8 7.17 0.282
20:53 1014 29.94 843 24.89 6.8 44.2 54 -1.9 28.6 7.18 0.283
20:54 1014 29.94 843 24.89 6.8 44.2 53 -2 28.4 7.22 0.284
20:55 1014 29.94 843 24.89 6.8 44.3 53 -2 28.4 7.21 0.284
20:56 1014 29.94 843 24.89 6.8 44.3 53 -2 28.4 7.23 0.285
20:57 1014 29.94 843 24.89 6.8 44.2 55 -1.7 29 7.25 0.285
20:58 1014 29.94 843 24.89 6.8 44.3 54 -1.8 28.7 7.17 0.282
20:59 1014 29.94 843 24.89 6.7 44.1 54 -2 28.4 7.15 0.281
21:00 1014 29.94 843 24.89 6.8 44.2 54 -1.8 28.7 7.1 0.28
21:01 1014 29.94 843 24.89 6.7 44.1 54 -2 28.3 7.12 0.28
21:02 1014 29.94 844 24.92 6.7 44.1 55 -1.8 28.8 7.11 0.28
21:03 1014 29.94 844 24.92 6.7 44 54 -1.9 28.6 7.05 0.278
21:04 1014 29.94 844 24.92 6.7 44 54 -1.9 28.6 7.04 0.277
21:05 1014 29.94 844 24.92 6.6 43.9 55 -1.7 28.9 7.03 0.277
21:06 1014 29.94 844 24.92 6.6 43.8 54 -2 28.4 7 0.276
21:07 1014 29.94 843 24.89 6.6 43.9 55 -1.8 28.7 7.04 0.277
21:08 1014 29.94 844 24.92 6.6 43.9 55 -1.8 28.8 7.06 0.278
21:09 1014 29.94 844 24.92 6.6 44 55 -1.8 28.8 7.04 0.277
21:10 1014 29.94 844 24.92 6.7 44 56 -1.6 29.2 7.06 0.278
21:11 1014 29.94 844 24.92 6.7 44 55 -1.8 28.8 7.04 0.277
21:12 1014 29.94 844 24.92 6.7 44.1 55 -1.8 28.8 7.1 0.28
21:13 1014 29.94 844 24.92 6.7 44 55 -1.8 28.8 7.06 0.278
21:14 1014 29.94 844 24.92 6.6 43.9 55 -1.6 29.1 7.04 0.277
21:15 1014 29.94 844 24.92 6.6 43.8 56 -1.6 29.1 6.957 0.274
21:16 1014 29.94 844 24.92 6.6 43.9 56 -1.6 29.2 6.957 0.274
21:17 1014 29.94 844 24.92 6.6 43.9 56 -1.5 29.2 6.98 0.275
21:18 1014 29.94 844 24.92 6.6 43.8 56 -1.5 29.3 6.98 0.275
21:19 1014 29.94 844 24.92 6.5 43.8 56 -1.6 29.2 6.969 0.274
21:20 1014 29.94 844 24.92 6.6 43.8 56 -1.5 29.3 6.952 0.274
21:21 1014 29.94 844 24.92 6.5 43.7 57 -1.4 29.6 6.929 0.273
21:22 1014 29.94 844 24.92 6.5 43.7 57 -1.4 29.4 6.901 0.272
21:23 1015 29.97 844 24.92 6.5 43.7 57 -1.3 29.6 6.895 0.271
21:24 1014 29.94 844 24.92 6.5 43.7 57 -1.4 29.5 6.918 0.272
21:25 1014 29.94 844 24.92 6.6 43.8 57 -1.3 29.7 6.957 0.274
21:26 1014 29.94 844 24.92 6.5 43.8 58 -1.1 29.9 6.946 0.273
21:27 1014 29.94 844 24.92 6.5 43.7 57 -1.3 29.6 6.924 0.273
21:28 1015 29.97 844 24.92 6.5 43.6 58 -1.2 29.8 6.908 0.272
21:29 1014 29.94 844 24.92 6.5 43.7 58 -1.2 29.9 6.88 0.271
21:30 1014 29.94 844 24.92 6.5 43.7 58 -1.1 30 6.908 0.272
21:31 1014 29.94 844 24.92 6.5 43.6 58 -1.1 30 6.862 0.27
21:32 1014 29.94 844 24.92 6.4 43.6 58 -1.2 29.8 6.845 0.269
21:33 1014 29.94 844 24.92 6.5 43.6 58 -1.2 29.9 6.896 0.271
21:34 1015 29.97 844 24.92 6.5 43.7 58 -1.1 30.1 6.874 0.271
21:35 1015 29.97 844 24.92 6.4 43.6 59 -1 30.2 6.806 0.268
21:36 1015 29.97 844 24.92 6.3 43.4 59 -1 30.2 6.71 0.264
21:37 1015 29.97 844 24.92 6.3 43.3 60 -1 30.2 6.654 0.262
21:38 1015 29.97 844 24.92 6.2 43.2 60 -1 30.2 6.666 0.262
21:39 1015 29.97 844 24.92 6.3 43.3 60 -0.8 30.5 6.672 0.263
21:40 1015 29.97 844 24.92 6.2 43.2 59 -1.1 30.1 6.65 0.262
21:41 1015 29.97 844 24.92 6.3 43.3 60 -0.9 30.3 6.667 0.262
21:42 1015 29.97 844 24.92 6.3 43.4 60 -0.9 30.3 6.713 0.264
21:43 1015 29.97 844 24.92 6.3 43.3 60 -1 30.3 6.668 0.263
21:44 1015 29.97 844 24.92 6.3 43.3 60 -0.8 30.6 6.662 0.262
21:45 1015 29.97 844 24.92 6.2 43.2 61 -0.8 30.6 6.657 0.262
21:46 1015 29.97 844 24.92 6.2 43.1 61 -0.7 30.7 6.578 0.259
21:47 1015 29.97 844 24.92 6.2 43.1 61 -0.8 30.6 6.521 0.257
21:48 1015 29.97 844 24.92 6.1 43 61 -0.8 30.6 6.561 0.258
21:49 1015 29.97 844 24.92 6.1 43 61 -0.8 30.6 6.528 0.257
21:50 1015 29.97 844 24.92 6.1 43.1 62 -0.6 31 6.544 0.258
21:51 1015 29.97 844 24.92 6.1 43 61 -0.7 30.7 6.483 0.255
21:52 1015 29.97 844 24.92 6.1 43 62 -0.7 30.8 6.505 0.256
21:53 1015 29.97 844 24.92 6.1 43 62 -0.7 30.7 6.483 0.255
21:54 1015 29.97 844 24.92 6.1 43 62 -0.6 30.9 6.523 0.257
21:55 1015 29.97 844 24.92 6.1 43 62 -0.7 30.8 6.54 0.257
21:56 1015 29.97 844 24.92 6.1 43 61 -0.7 30.7 6.557 0.258
21:57 1015 29.97 844 24.92 6.2 43.1 61 -0.7 30.8 6.568 0.259
21:58 1015 29.97 844 24.92 6.2 43.1 62 -0.6 30.9 6.557 0.258
21:59 1015 29.97 844 24.92 6.2 43.1 62 -0.5 31 6.552 0.258
22:00 1015 29.97 844 24.92 6.1 43 62 -0.5 31.1 6.502 0.256
22:01 1015 29.97 844 24.92 6 42.9 62 -0.6 30.9 6.429 0.253
22:02 1015 29.97 844 24.92 6 42.8 62 -0.7 30.8 6.451 0.254
22:03 1015 29.97 844 24.92 6.1 42.9 63 -0.5 31.1 6.445 0.254
22:04 1015 29.97 844 24.92 6 42.9 62 -0.6 30.9 6.434 0.253
22:05 1015 29.97 844 24.92 6 42.9 63 -0.5 31 6.474 0.255
22:06 1015 29.97 844 24.92 6.1 42.9 62 -0.6 30.9 6.436 0.253
22:07 1015 29.97 844 24.92 6.1 42.9 62 -0.6 31 6.487 0.255
22:08 1015 29.97 844 24.92 6.1 43 63 -0.4 31.2 6.493 0.256
22:09 1015 29.97 844 24.92 6.1 42.9 63 -0.4 31.2 6.42 0.253
22:10 1015 29.97 844 24.92 6 42.7 63 -0.4 31.2 6.386 0.251
22:11 1015 29.97 844 24.92 5.9 42.7 63 -0.5 31.2 6.335 0.249
22:12 1015 29.97 844 24.92 6 42.7 63 -0.5 31.1 6.336 0.249
22:13 1015 29.97 844 24.92 6 42.7 63 -0.5 31.1 6.359 0.25
22:14 1015 29.97 844 24.92 6 42.8 63 -0.5 31.2 6.37 0.251
22:15 1015 29.97 844 24.92 6 42.8 63 -0.5 31.1 6.371 0.251
22:16 1015 29.97 844 24.92 6 42.8 62 -0.6 30.9 6.416 0.253
22:17 1015 29.97 844 24.92 6.1 42.9 63 -0.5 31.1 6.461 0.254
22:18 1015 29.97 844 24.92 6.1 42.9 63 -0.5 31.1 6.45 0.254
22:19 1015 29.97 844 24.92 6 42.9 63 -0.5 31.1 6.456 0.254
22:20 1015 29.97 844 24.92 6.1 43 63 -0.4 31.3 6.439 0.254
22:21 1015 29.97 844 24.92 6 42.9 63 -0.4 31.3 6.417 0.253
22:22 1015 29.97 844 24.92 6 42.9 63 -0.5 31.1 6.411 0.252
22:23 1015 29.97 844 24.92 6 42.8 63 -0.5 31.1 6.383 0.251
22:24 1015 29.97 844 24.92 6 42.8 63 -0.6 31 6.383 0.251
22:25 1015 29.97 844 24.92 6 42.8 63 -0.5 31.1 6.434 0.253
22:26 1015 29.97 844 24.92 6 42.8 63 -0.5 31.1 6.429 0.253
22:27 1015 29.97 844 24.92 6 42.8 63 -0.5 31.2 6.378 0.251
22:28 1015 29.97 844 24.92 6 42.7 63 -0.5 31.1 6.316 0.249
22:29 1015 29.97 844 24.92 5.9 42.6 63 -0.7 30.8 6.327 0.249
22:30 1015 29.97 844 24.92 6 42.8 63 -0.6 30.9 6.407 0.252
22:31 1015 29.97 844 24.92 6 42.8 63 -0.5 31 6.401 0.252
22:32 1015 29.97 844 24.92 6 42.8 63 -0.5 31 6.412 0.252
22:33 1015 29.97 844 24.92 6 42.8 63 -0.5 31.1 6.384 0.251
22:34 1015 29.97 844 24.92 6 42.7 62 -0.6 30.8 6.361 0.25
22:35 1015 29.97 844 24.92 6 42.7 62 -0.7 30.8 6.401 0.252
22:36 1015 29.97 844 24.92 6 42.7 63 -0.6 30.9 6.367 0.251
22:37 1015 29.97 844 24.92 6 42.7 63 -0.6 31 6.379 0.251
22:38 1015 29.97 844 24.92 6 42.7 63 -0.6 31 6.373 0.251
22:39 1015 29.97 844 24.92 6 42.7 63 -0.5 31 6.367 0.251
22:40 1015 29.97 844 24.92 6 42.7 63 -0.6 30.9 6.362 0.25
22:41 1015 29.97 844 24.92 6 42.8 62 -0.7 30.8 6.373 0.251
22:42 1015 29.97 844 24.92 6 42.7 63 -0.5 31.1 6.396 0.252
22:43 1015 29.97 844 24.92 6 42.8 63 -0.5 31.1 6.345 0.25
22:44 1015 29.97 844 24.92 5.9 42.7 63 -0.5 31.1 6.311 0.248
22:45 1015 29.97 844 24.92 5.9 42.6 63 -0.6 31 6.322 0.249
22:46 1015 29.97 844 24.92 5.9 42.7 64 -0.5 31.2 6.288 0.248
22:47 1015 29.97 844 24.92 5.9 42.6 63 -0.6 30.9 6.277 0.247
22:48 1015 29.97 844 24.92 5.9 42.6 63 -0.6 31 6.3 0.248
22:49 1015 29.97 844 24.92 5.9 42.7 63 -0.6 30.8 6.345 0.25
22:50 1015 29.97 844 24.92 6 42.7 62 -0.6 30.8 6.356 0.25
22:51 1015 29.97 844 24.92 5.9 42.7 62 -0.7 30.8 6.334 0.249
22:52 1015 29.97 844 24.92 5.9 42.7 63 -0.6 31 6.322 0.249
22:53 1015 29.97 844 24.92 5.9 42.6 64 -0.4 31.3 6.272 0.247
22:54 1015 29.97 844 24.92 5.8 42.4 64 -0.4 31.3 6.243 0.246
22:55 1015 29.97 844 24.92 5.8 42.5 64 -0.5 31.1 6.226 0.245
22:56 1015 29.97 844 24.92 5.8 42.5 63 -0.5 31 6.226 0.245
22:57 1015 29.97 844 24.92 5.8 42.5 64 -0.5 31.2 6.232 0.245
22:58 1015 29.97 844 24.92 5.8 42.4 64 -0.5 31.1 6.209 0.244
22:59 1015 29.97 844 24.92 5.8 42.4 64 -0.5 31.1 6.153 0.242
23:00 1015 29.97 844 24.92 5.8 42.4 64 -0.4 31.3 6.17 0.243
23:01 1015 29.97 844 24.92 5.7 42.3 64 -0.4 31.2 6.13 0.241
23:02 1015 29.97 844 24.92 5.7 42.3 64 -0.5 31 6.13 0.241
23:03 1015 29.97 844 24.92 5.7 42.3 64 -0.6 31 6.13 0.241
23:04 1015 29.97 844 24.92 5.7 42.3 64 -0.5 31.1 6.113 0.241
23:05 1015 29.97 844 24.92 5.7 42.3 64 -0.6 30.9 6.108 0.24
23:06 1015 29.97 844 24.92 5.7 42.3 64 -0.6 30.9 6.113 0.241
23:07 1015 29.97 844 24.92 5.8 42.4 64 -0.5 31 6.119 0.241
23:08 1015 29.97 844 24.92 5.7 42.3 64 -0.6 30.9 6.108 0.24
23:09 1015 29.97 844 24.92 5.7 42.3 64 -0.6 30.9 6.091 0.24
23:10 1015 29.97 844 24.92 5.7 42.2 63 -0.7 30.7 6.096 0.24
23:11 1015 29.97 844 24.92 5.7 42.3 63 -0.7 30.8 6.113 0.241
23:12 1015 29.97 844 24.92 5.7 42.3 63 -0.7 30.7 6.176 0.243
23:13 1015 29.97 844 24.92 5.8 42.4 63 -0.7 30.8 6.153 0.242
23:14 1015 29.97 844 24.92 5.7 42.3 64 -0.6 31 6.147 0.242
23:15 1015 29.97 844 24.92 5.7 42.3 64 -0.6 30.8 6.125 0.241
23:16 1015 29.97 844 24.92 5.7 42.3 64 -0.5 31 6.125 0.241
23:17 1015 29.97 844 24.92 5.7 42.3 63 -0.7 30.8 6.096 0.24
23:18 1015 29.97 844 24.92 5.7 42.3 64 -0.6 30.9 6.119 0.241
23:19 1015 29.97 844 24.92 5.7 42.3 64 -0.5 31 6.125 0.241
23:20 1015 29.97 844 24.92 5.7 42.2 64 -0.5 31.1 6.068 0.239
23:21 1015 29.97 844 24.92 5.6 42.1 65 -0.5 31 6 0.236
23:22 1015 29.97 844 24.92 5.6 42.1 64 -0.6 31 5.989 0.236
23:23 1015 29.97 844 24.92 5.6 42.1 64 -0.6 31 5.989 0.236
23:24 1015 29.97 844 24.92 5.6 42.1 64 -0.7 30.8 6.011 0.237
23:25 1015 29.97 844 24.92 5.6 42.1 64 -0.7 30.7 6.017 0.237
23:26 1015 29.97 844 24.92 5.6 42.1 64 -0.7 30.7 6.006 0.236
23:27 1015 29.97 844 24.92 5.6 42.2 64 -0.6 30.9 6.011 0.237
23:28 1015 29.97 844 24.92 5.6 42.1 64 -0.6 30.9 6 0.236
23:29 1015 29.97 844 24.92 5.6 42.1 64 -0.6 30.9 5.989 0.236
23:30 1015 29.97 844 24.92 5.6 42.1 64 -0.7 30.7 5.983 0.236
23:31 1015 29.97 844 24.92 5.6 42 63 -0.8 30.5 5.995 0.236
23:32 1015 29.97 844 24.92 5.6 42.1 64 -0.7 30.7 6.023 0.237
23:33 1015 29.97 844 24.92 5.6 42.1 63 -0.7 30.7 6.079 0.239
23:34 1015 29.97 844 24.92 5.6 42.1 63 -0.8 30.6 6.028 0.237
23:35 1015 29.97 844 24.92 5.6 42.1 63 -0.8 30.5 6.017 0.237
23:36 1015 29.97 844 24.92 5.6 42.2 64 -0.7 30.7 6.045 0.238
23:37 1015 29.97 844 24.92 5.6 42.1 64 -0.7 30.8 5.978 0.235
23:38 1015 29.97 844 24.92 5.5 42 64 -0.7 30.7 5.921 0.233
23:39 1015 29.97 844 24.92 5.5 42 64 -0.8 30.6 5.944 0.234
23:40 1015 29.97 844 24.92 5.6 42 64 -0.7 30.8 5.949 0.234
23:41 1015 29.97 844 24.92 5.5 42 64 -0.7 30.7 5.961 0.235
23:42 1015 29.97 844 24.92 5.5 41.9 64 -0.7 30.8 5.904 0.232
23:43 1015 29.97 844 24.92 5.5 41.8 65 -0.7 30.8 5.83 0.23
23:44 1015 29.97 844 24.92 5.4 41.8 64 -0.7 30.7 5.864 0.231
23:45 1015 29.97 844 24.92 5.5 41.8 64 -0.8 30.6 5.825 0.229
23:46 1015 29.97 844 24.92 5.5 41.9 64 -0.8 30.6 5.859 0.231
23:47 1015 29.97 844 24.92 5.5 42 64 -0.7 30.7 5.881 0.232
23:48 1015 29.97 844 24.92 5.5 42 63 -0.8 30.5 5.955 0.234
23:49 1015 29.97 844 24.92 5.6 42 64 -0.7 30.8 5.972 0.235
23:50 1015 29.97 844 24.92 5.5 42 64 -0.8 30.6 5.949 0.234
23:51 1015 29.97 844 24.92 5.5 41.9 63 -0.9 30.4 5.915 0.233
23:52 1015 29.97 844 24.92 5.5 42 64 -0.8 30.6 5.904 0.232
23:53 1015 29.97 844 24.92 5.5 41.9 63 -0.9 30.3 5.898 0.232
23:54 1015 29.97 844 24.92 5.5 41.9 64 -0.8 30.5 5.927 0.233
23:55 1015 29.97 844 24.92 5.5 41.9 63 -0.9 30.4 5.904 0.232
23:56 1015 29.97 844 24.92 5.5 41.9 64 -0.8 30.5 5.91 0.233
23:57 1015 29.97 844 24.92 5.5 41.9 64 -0.8 30.6 5.898 0.232
23:58 1015 29.97 844 24.92 5.4 41.8 64 -0.8 30.5 5.853 0.23
23:59 1015 29.97 844 24.92 5.4 41.8 64 -0.8 30.6 5.808 0.229
24:00 1015 29.97 844 24.92 5.4 41.8 64 -0.8 30.5 5.847 0.23